<?xml version="1.0" encoding="UTF-8" standalone="no" ?>
<gpx xmlns="http://www.topografix.com/GPX/1/1" xmlns:xsi="http://www.w3.org/2001/XMLSchema-instance" xsi:schemaLocation="http://www.topografix.com/GPX/1/1 http://www.topografix.com/GPX/1/1/gpx.xsd" version="1.1" creator="VisuGPX - https://www.visugpx.com">
  <metadata>
    <name>Boucle depuis la Croix Perrin</name>
    <desc><![CDATA[belle mise en jambes en groupe...!]]></desc>
  </metadata>
  <trk>
    <name><![CDATA[2021-03-08 15-29-29]]></name>
    <trkseg>
      <trkpt lat="45.13059" lon="5.55998">
        <ele>1216.21</ele>
        <time>2021-03-08T08:26:49Z</time>
      </trkpt>
      <trkpt lat="45.13058" lon="5.55997">
        <ele>1217.17</ele>
        <time>2021-03-08T08:26:50Z</time>
      </trkpt>
      <trkpt lat="45.13057" lon="5.55997">
        <ele>1218.61</ele>
        <time>2021-03-08T08:26:52Z</time>
      </trkpt>
      <trkpt lat="45.13055" lon="5.55996">
        <ele>1215.24</ele>
        <time>2021-03-08T08:27:01Z</time>
      </trkpt>
      <trkpt lat="45.13055" lon="5.55995">
        <ele>1214.76</ele>
        <time>2021-03-08T08:27:03Z</time>
      </trkpt>
      <trkpt lat="45.13057" lon="5.55996">
        <ele>1216.69</ele>
        <time>2021-03-08T08:27:07Z</time>
      </trkpt>
      <trkpt lat="45.13057" lon="5.55998">
        <ele>1219.09</ele>
        <time>2021-03-08T08:27:11Z</time>
      </trkpt>
      <trkpt lat="45.13057" lon="5.55999">
        <ele>1216.21</ele>
        <time>2021-03-08T08:27:26Z</time>
      </trkpt>
      <trkpt lat="45.13057" lon="5.56">
        <ele>1215.24</ele>
        <time>2021-03-08T08:27:58Z</time>
      </trkpt>
      <trkpt lat="45.13057" lon="5.56">
        <ele>1217.17</ele>
        <time>2021-03-08T08:28:07Z</time>
      </trkpt>
      <trkpt lat="45.13057" lon="5.55999">
        <ele>1216.69</ele>
        <time>2021-03-08T08:28:35Z</time>
      </trkpt>
      <trkpt lat="45.13056" lon="5.55999">
        <ele>1217.65</ele>
        <time>2021-03-08T08:29:09Z</time>
      </trkpt>
      <trkpt lat="45.13057" lon="5.56">
        <ele>1217.17</ele>
        <time>2021-03-08T08:29:31Z</time>
      </trkpt>
      <trkpt lat="45.13056" lon="5.55999">
        <ele>1217.17</ele>
        <time>2021-03-08T08:29:54Z</time>
      </trkpt>
      <trkpt lat="45.13056" lon="5.55998">
        <ele>1217.17</ele>
        <time>2021-03-08T08:30:10Z</time>
      </trkpt>
      <trkpt lat="45.1306" lon="5.56">
        <ele>1217.17</ele>
        <time>2021-03-08T08:30:31Z</time>
      </trkpt>
      <trkpt lat="45.13058" lon="5.56002">
        <ele>1216.21</ele>
        <time>2021-03-08T08:30:54Z</time>
      </trkpt>
      <trkpt lat="45.13057" lon="5.56">
        <ele>1217.17</ele>
        <time>2021-03-08T08:31:18Z</time>
      </trkpt>
      <trkpt lat="45.13056" lon="5.56001">
        <ele>1216.21</ele>
        <time>2021-03-08T08:31:41Z</time>
      </trkpt>
      <trkpt lat="45.13054" lon="5.56007">
        <ele>1215.24</ele>
        <time>2021-03-08T08:32:00Z</time>
      </trkpt>
      <trkpt lat="45.13052" lon="5.56008">
        <ele>1215.72</ele>
        <time>2021-03-08T08:32:23Z</time>
      </trkpt>
      <trkpt lat="45.13053" lon="5.56007">
        <ele>1215.72</ele>
        <time>2021-03-08T08:32:46Z</time>
      </trkpt>
      <trkpt lat="45.13052" lon="5.56008">
        <ele>1216.21</ele>
        <time>2021-03-08T08:33:01Z</time>
      </trkpt>
      <trkpt lat="45.13052" lon="5.5601">
        <ele>1216.21</ele>
        <time>2021-03-08T08:33:17Z</time>
      </trkpt>
      <trkpt lat="45.13053" lon="5.56025">
        <ele>1216.21</ele>
        <time>2021-03-08T08:33:34Z</time>
      </trkpt>
      <trkpt lat="45.13049" lon="5.56038">
        <ele>1217.17</ele>
        <time>2021-03-08T08:33:49Z</time>
      </trkpt>
      <trkpt lat="45.13046" lon="5.56048">
        <ele>1218.61</ele>
        <time>2021-03-08T08:34:06Z</time>
      </trkpt>
      <trkpt lat="45.13041" lon="5.56059">
        <ele>1219.09</ele>
        <time>2021-03-08T08:34:22Z</time>
      </trkpt>
      <trkpt lat="45.13037" lon="5.56073">
        <ele>1221.01</ele>
        <time>2021-03-08T08:34:43Z</time>
      </trkpt>
      <trkpt lat="45.13025" lon="5.56089">
        <ele>1223.42</ele>
        <time>2021-03-08T08:35:06Z</time>
      </trkpt>
      <trkpt lat="45.13016" lon="5.56103">
        <ele>1224.86</ele>
        <time>2021-03-08T08:35:25Z</time>
      </trkpt>
      <trkpt lat="45.12998" lon="5.561">
        <ele>1224.86</ele>
        <time>2021-03-08T08:35:47Z</time>
      </trkpt>
      <trkpt lat="45.12981" lon="5.56091">
        <ele>1223.9</ele>
        <time>2021-03-08T08:36:14Z</time>
      </trkpt>
      <trkpt lat="45.12965" lon="5.56075">
        <ele>1221.01</ele>
        <time>2021-03-08T08:36:40Z</time>
      </trkpt>
      <trkpt lat="45.12946" lon="5.56062">
        <ele>1218.61</ele>
        <time>2021-03-08T08:37:06Z</time>
      </trkpt>
      <trkpt lat="45.12926" lon="5.56074">
        <ele>1217.17</ele>
        <time>2021-03-08T08:37:30Z</time>
      </trkpt>
      <trkpt lat="45.12904" lon="5.56094">
        <ele>1215.24</ele>
        <time>2021-03-08T08:37:55Z</time>
      </trkpt>
      <trkpt lat="45.12882" lon="5.56094">
        <ele>1215.72</ele>
        <time>2021-03-08T08:38:16Z</time>
      </trkpt>
      <trkpt lat="45.1287" lon="5.56095">
        <ele>1216.21</ele>
        <time>2021-03-08T08:38:28Z</time>
      </trkpt>
      <trkpt lat="45.12859" lon="5.56099">
        <ele>1217.17</ele>
        <time>2021-03-08T08:38:41Z</time>
      </trkpt>
      <trkpt lat="45.12841" lon="5.56108">
        <ele>1220.05</ele>
        <time>2021-03-08T08:39:08Z</time>
      </trkpt>
      <trkpt lat="45.12835" lon="5.56114">
        <ele>1221.49</ele>
        <time>2021-03-08T08:39:21Z</time>
      </trkpt>
      <trkpt lat="45.12834" lon="5.56116">
        <ele>1221.49</ele>
        <time>2021-03-08T08:39:23Z</time>
      </trkpt>
      <trkpt lat="45.12812" lon="5.56133">
        <ele>1223.42</ele>
        <time>2021-03-08T08:39:50Z</time>
      </trkpt>
      <trkpt lat="45.12786" lon="5.56153">
        <ele>1224.86</ele>
        <time>2021-03-08T08:40:20Z</time>
      </trkpt>
      <trkpt lat="45.12764" lon="5.56172">
        <ele>1225.82</ele>
        <time>2021-03-08T08:40:48Z</time>
      </trkpt>
      <trkpt lat="45.12741" lon="5.56198">
        <ele>1225.82</ele>
        <time>2021-03-08T08:41:19Z</time>
      </trkpt>
      <trkpt lat="45.1272" lon="5.56214">
        <ele>1222.93</ele>
        <time>2021-03-08T08:41:46Z</time>
      </trkpt>
      <trkpt lat="45.12719" lon="5.56215">
        <ele>1222.45</ele>
        <time>2021-03-08T08:41:48Z</time>
      </trkpt>
      <trkpt lat="45.12707" lon="5.56224">
        <ele>1219.57</ele>
        <time>2021-03-08T08:42:09Z</time>
      </trkpt>
      <trkpt lat="45.127" lon="5.56227">
        <ele>1218.13</ele>
        <time>2021-03-08T08:42:18Z</time>
      </trkpt>
      <trkpt lat="45.12689" lon="5.56234">
        <ele>1214.76</ele>
        <time>2021-03-08T08:42:36Z</time>
      </trkpt>
      <trkpt lat="45.12678" lon="5.56243">
        <ele>1212.36</ele>
        <time>2021-03-08T08:42:52Z</time>
      </trkpt>
      <trkpt lat="45.12667" lon="5.5625">
        <ele>1209.96</ele>
        <time>2021-03-08T08:43:09Z</time>
      </trkpt>
      <trkpt lat="45.12666" lon="5.5625">
        <ele>1209</ele>
        <time>2021-03-08T08:43:12Z</time>
      </trkpt>
      <trkpt lat="45.12653" lon="5.56257">
        <ele>1206.59</ele>
        <time>2021-03-08T08:43:36Z</time>
      </trkpt>
      <trkpt lat="45.12647" lon="5.56253">
        <ele>1205.63</ele>
        <time>2021-03-08T08:44:05Z</time>
      </trkpt>
      <trkpt lat="45.1264" lon="5.56257">
        <ele>1202.75</ele>
        <time>2021-03-08T08:44:23Z</time>
      </trkpt>
      <trkpt lat="45.1263" lon="5.56265">
        <ele>1201.79</ele>
        <time>2021-03-08T08:44:51Z</time>
      </trkpt>
      <trkpt lat="45.12618" lon="5.56273">
        <ele>1198.9</ele>
        <time>2021-03-08T08:45:16Z</time>
      </trkpt>
      <trkpt lat="45.12602" lon="5.5627">
        <ele>1200.82</ele>
        <time>2021-03-08T08:45:43Z</time>
      </trkpt>
      <trkpt lat="45.12586" lon="5.56273">
        <ele>1203.23</ele>
        <time>2021-03-08T08:46:07Z</time>
      </trkpt>
      <trkpt lat="45.12577" lon="5.56286">
        <ele>1205.15</ele>
        <time>2021-03-08T08:46:29Z</time>
      </trkpt>
      <trkpt lat="45.12566" lon="5.563">
        <ele>1207.55</ele>
        <time>2021-03-08T08:46:55Z</time>
      </trkpt>
      <trkpt lat="45.12555" lon="5.56307">
        <ele>1208.03</ele>
        <time>2021-03-08T08:47:11Z</time>
      </trkpt>
      <trkpt lat="45.12542" lon="5.56317">
        <ele>1208.51</ele>
        <time>2021-03-08T08:47:26Z</time>
      </trkpt>
      <trkpt lat="45.12523" lon="5.56333">
        <ele>1208.03</ele>
        <time>2021-03-08T08:47:50Z</time>
      </trkpt>
      <trkpt lat="45.12508" lon="5.56345">
        <ele>1206.59</ele>
        <time>2021-03-08T08:48:12Z</time>
      </trkpt>
      <trkpt lat="45.12492" lon="5.56363">
        <ele>1206.59</ele>
        <time>2021-03-08T08:48:32Z</time>
      </trkpt>
      <trkpt lat="45.12475" lon="5.56387">
        <ele>1206.59</ele>
        <time>2021-03-08T08:48:54Z</time>
      </trkpt>
      <trkpt lat="45.12464" lon="5.56399">
        <ele>1198.9</ele>
        <time>2021-03-08T08:49:10Z</time>
      </trkpt>
      <trkpt lat="45.12463" lon="5.564">
        <ele>1198.9</ele>
        <time>2021-03-08T08:49:11Z</time>
      </trkpt>
      <trkpt lat="45.12452" lon="5.56421">
        <ele>1197.94</ele>
        <time>2021-03-08T08:49:29Z</time>
      </trkpt>
      <trkpt lat="45.12448" lon="5.56442">
        <ele>1197.46</ele>
        <time>2021-03-08T08:49:49Z</time>
      </trkpt>
      <trkpt lat="45.12433" lon="5.56472">
        <ele>1196.02</ele>
        <time>2021-03-08T08:50:13Z</time>
      </trkpt>
      <trkpt lat="45.12413" lon="5.56482">
        <ele>1198.9</ele>
        <time>2021-03-08T08:50:36Z</time>
      </trkpt>
      <trkpt lat="45.12399" lon="5.56482">
        <ele>1201.79</ele>
        <time>2021-03-08T08:50:55Z</time>
      </trkpt>
      <trkpt lat="45.12378" lon="5.5648">
        <ele>1204.19</ele>
        <time>2021-03-08T08:51:22Z</time>
      </trkpt>
      <trkpt lat="45.12365" lon="5.56482">
        <ele>1203.71</ele>
        <time>2021-03-08T08:51:39Z</time>
      </trkpt>
      <trkpt lat="45.12363" lon="5.56482">
        <ele>1201.79</ele>
        <time>2021-03-08T08:52:04Z</time>
      </trkpt>
      <trkpt lat="45.12365" lon="5.56488">
        <ele>1200.82</ele>
        <time>2021-03-08T08:52:50Z</time>
      </trkpt>
      <trkpt lat="45.12364" lon="5.56485">
        <ele>1200.34</ele>
        <time>2021-03-08T08:53:20Z</time>
      </trkpt>
      <trkpt lat="45.12365" lon="5.56489">
        <ele>1200.82</ele>
        <time>2021-03-08T08:53:38Z</time>
      </trkpt>
      <trkpt lat="45.12367" lon="5.56491">
        <ele>1201.79</ele>
        <time>2021-03-08T08:54:12Z</time>
      </trkpt>
      <trkpt lat="45.12367" lon="5.56492">
        <ele>1202.75</ele>
        <time>2021-03-08T08:55:06Z</time>
      </trkpt>
      <trkpt lat="45.12368" lon="5.56498">
        <ele>1203.71</ele>
        <time>2021-03-08T08:55:36Z</time>
      </trkpt>
      <trkpt lat="45.12376" lon="5.56524">
        <ele>1205.63</ele>
        <time>2021-03-08T08:56:03Z</time>
      </trkpt>
      <trkpt lat="45.12385" lon="5.56545">
        <ele>1209</ele>
        <time>2021-03-08T08:56:24Z</time>
      </trkpt>
      <trkpt lat="45.12394" lon="5.56565">
        <ele>1210.44</ele>
        <time>2021-03-08T08:56:45Z</time>
      </trkpt>
      <trkpt lat="45.12397" lon="5.56584">
        <ele>1210.44</ele>
        <time>2021-03-08T08:57:03Z</time>
      </trkpt>
      <trkpt lat="45.12402" lon="5.56602">
        <ele>1211.4</ele>
        <time>2021-03-08T08:57:20Z</time>
      </trkpt>
      <trkpt lat="45.12405" lon="5.56617">
        <ele>1213.32</ele>
        <time>2021-03-08T08:57:36Z</time>
      </trkpt>
      <trkpt lat="45.12406" lon="5.56628">
        <ele>1214.76</ele>
        <time>2021-03-08T08:57:49Z</time>
      </trkpt>
      <trkpt lat="45.12406" lon="5.5664">
        <ele>1215.72</ele>
        <time>2021-03-08T08:58:03Z</time>
      </trkpt>
      <trkpt lat="45.12408" lon="5.56649">
        <ele>1216.69</ele>
        <time>2021-03-08T08:58:17Z</time>
      </trkpt>
      <trkpt lat="45.12412" lon="5.5666">
        <ele>1219.57</ele>
        <time>2021-03-08T08:58:34Z</time>
      </trkpt>
      <trkpt lat="45.12418" lon="5.56674">
        <ele>1222.45</ele>
        <time>2021-03-08T08:58:52Z</time>
      </trkpt>
      <trkpt lat="45.12421" lon="5.56682">
        <ele>1225.82</ele>
        <time>2021-03-08T08:59:16Z</time>
      </trkpt>
      <trkpt lat="45.12428" lon="5.56697">
        <ele>1228.7</ele>
        <time>2021-03-08T08:59:38Z</time>
      </trkpt>
      <trkpt lat="45.1244" lon="5.56706">
        <ele>1231.59</ele>
        <time>2021-03-08T09:00:00Z</time>
      </trkpt>
      <trkpt lat="45.12448" lon="5.56717">
        <ele>1233.99</ele>
        <time>2021-03-08T09:00:25Z</time>
      </trkpt>
      <trkpt lat="45.12457" lon="5.56737">
        <ele>1236.87</ele>
        <time>2021-03-08T09:00:47Z</time>
      </trkpt>
      <trkpt lat="45.12466" lon="5.56752">
        <ele>1240.24</ele>
        <time>2021-03-08T09:01:06Z</time>
      </trkpt>
      <trkpt lat="45.12472" lon="5.56764">
        <ele>1243.6</ele>
        <time>2021-03-08T09:01:24Z</time>
      </trkpt>
      <trkpt lat="45.12486" lon="5.56772">
        <ele>1246.49</ele>
        <time>2021-03-08T09:01:46Z</time>
      </trkpt>
      <trkpt lat="45.125" lon="5.56773">
        <ele>1248.41</ele>
        <time>2021-03-08T09:02:07Z</time>
      </trkpt>
      <trkpt lat="45.12502" lon="5.56774">
        <ele>1248.89</ele>
        <time>2021-03-08T09:02:10Z</time>
      </trkpt>
      <trkpt lat="45.12514" lon="5.56779">
        <ele>1250.33</ele>
        <time>2021-03-08T09:02:26Z</time>
      </trkpt>
      <trkpt lat="45.1253" lon="5.56786">
        <ele>1253.22</ele>
        <time>2021-03-08T09:02:49Z</time>
      </trkpt>
      <trkpt lat="45.12537" lon="5.56791">
        <ele>1256.1</ele>
        <time>2021-03-08T09:03:11Z</time>
      </trkpt>
      <trkpt lat="45.12543" lon="5.56791">
        <ele>1256.58</ele>
        <time>2021-03-08T09:03:42Z</time>
      </trkpt>
      <trkpt lat="45.12553" lon="5.56792">
        <ele>1258.02</ele>
        <time>2021-03-08T09:03:53Z</time>
      </trkpt>
      <trkpt lat="45.12571" lon="5.5679">
        <ele>1258.98</ele>
        <time>2021-03-08T09:04:10Z</time>
      </trkpt>
      <trkpt lat="45.1258" lon="5.56794">
        <ele>1260.43</ele>
        <time>2021-03-08T09:04:22Z</time>
      </trkpt>
      <trkpt lat="45.12593" lon="5.56786">
        <ele>1262.83</ele>
        <time>2021-03-08T09:04:42Z</time>
      </trkpt>
      <trkpt lat="45.12615" lon="5.56775">
        <ele>1265.71</ele>
        <time>2021-03-08T09:05:12Z</time>
      </trkpt>
      <trkpt lat="45.12626" lon="5.56786">
        <ele>1268.12</ele>
        <time>2021-03-08T09:05:38Z</time>
      </trkpt>
      <trkpt lat="45.12641" lon="5.56792">
        <ele>1271</ele>
        <time>2021-03-08T09:06:03Z</time>
      </trkpt>
      <trkpt lat="45.12659" lon="5.56792">
        <ele>1273.88</ele>
        <time>2021-03-08T09:06:27Z</time>
      </trkpt>
      <trkpt lat="45.12681" lon="5.56797">
        <ele>1276.29</ele>
        <time>2021-03-08T09:06:52Z</time>
      </trkpt>
      <trkpt lat="45.12692" lon="5.56803">
        <ele>1278.69</ele>
        <time>2021-03-08T09:07:13Z</time>
      </trkpt>
      <trkpt lat="45.12704" lon="5.56809">
        <ele>1282.06</ele>
        <time>2021-03-08T09:07:36Z</time>
      </trkpt>
      <trkpt lat="45.12716" lon="5.5681">
        <ele>1285.42</ele>
        <time>2021-03-08T09:07:59Z</time>
      </trkpt>
      <trkpt lat="45.1273" lon="5.56814">
        <ele>1288.3</ele>
        <time>2021-03-08T09:08:23Z</time>
      </trkpt>
      <trkpt lat="45.12737" lon="5.56828">
        <ele>1291.19</ele>
        <time>2021-03-08T09:08:49Z</time>
      </trkpt>
      <trkpt lat="45.12731" lon="5.5684">
        <ele>1292.63</ele>
        <time>2021-03-08T09:09:06Z</time>
      </trkpt>
      <trkpt lat="45.12726" lon="5.56863">
        <ele>1295.03</ele>
        <time>2021-03-08T09:09:36Z</time>
      </trkpt>
      <trkpt lat="45.12726" lon="5.56864">
        <ele>1291.19</ele>
        <time>2021-03-08T09:09:45Z</time>
      </trkpt>
      <trkpt lat="45.12727" lon="5.56865">
        <ele>1289.27</ele>
        <time>2021-03-08T09:09:48Z</time>
      </trkpt>
      <trkpt lat="45.12728" lon="5.56866">
        <ele>1293.11</ele>
        <time>2021-03-08T09:09:57Z</time>
      </trkpt>
      <trkpt lat="45.1273" lon="5.56865">
        <ele>1295.99</ele>
        <time>2021-03-08T09:10:08Z</time>
      </trkpt>
      <trkpt lat="45.12722" lon="5.56867">
        <ele>1293.59</ele>
        <time>2021-03-08T09:10:28Z</time>
      </trkpt>
      <trkpt lat="45.12723" lon="5.5687">
        <ele>1297.44</ele>
        <time>2021-03-08T09:10:35Z</time>
      </trkpt>
      <trkpt lat="45.12736" lon="5.56871">
        <ele>1298.4</ele>
        <time>2021-03-08T09:11:00Z</time>
      </trkpt>
      <trkpt lat="45.12734" lon="5.56886">
        <ele>1301.28</ele>
        <time>2021-03-08T09:11:23Z</time>
      </trkpt>
      <trkpt lat="45.12725" lon="5.56904">
        <ele>1304.17</ele>
        <time>2021-03-08T09:11:46Z</time>
      </trkpt>
      <trkpt lat="45.12717" lon="5.56929">
        <ele>1307.53</ele>
        <time>2021-03-08T09:12:09Z</time>
      </trkpt>
      <trkpt lat="45.12715" lon="5.56942">
        <ele>1308.97</ele>
        <time>2021-03-08T09:12:33Z</time>
      </trkpt>
      <trkpt lat="45.12717" lon="5.5694">
        <ele>1308.97</ele>
        <time>2021-03-08T09:13:08Z</time>
      </trkpt>
      <trkpt lat="45.12718" lon="5.56943">
        <ele>1308.49</ele>
        <time>2021-03-08T09:13:47Z</time>
      </trkpt>
      <trkpt lat="45.12721" lon="5.56947">
        <ele>1308.49</ele>
        <time>2021-03-08T09:14:21Z</time>
      </trkpt>
      <trkpt lat="45.12732" lon="5.56941">
        <ele>1310.9</ele>
        <time>2021-03-08T09:14:42Z</time>
      </trkpt>
      <trkpt lat="45.12741" lon="5.56936">
        <ele>1313.3</ele>
        <time>2021-03-08T09:15:02Z</time>
      </trkpt>
      <trkpt lat="45.12756" lon="5.56931">
        <ele>1316.18</ele>
        <time>2021-03-08T09:15:26Z</time>
      </trkpt>
      <trkpt lat="45.12767" lon="5.56928">
        <ele>1317.62</ele>
        <time>2021-03-08T09:15:40Z</time>
      </trkpt>
      <trkpt lat="45.12777" lon="5.56926">
        <ele>1320.03</ele>
        <time>2021-03-08T09:15:59Z</time>
      </trkpt>
      <trkpt lat="45.12792" lon="5.5693">
        <ele>1322.43</ele>
        <time>2021-03-08T09:16:22Z</time>
      </trkpt>
      <trkpt lat="45.12803" lon="5.56932">
        <ele>1324.35</ele>
        <time>2021-03-08T09:16:43Z</time>
      </trkpt>
      <trkpt lat="45.12817" lon="5.56936">
        <ele>1326.28</ele>
        <time>2021-03-08T09:17:03Z</time>
      </trkpt>
      <trkpt lat="45.12835" lon="5.56941">
        <ele>1328.2</ele>
        <time>2021-03-08T09:17:27Z</time>
      </trkpt>
      <trkpt lat="45.12853" lon="5.56948">
        <ele>1331.08</ele>
        <time>2021-03-08T09:17:53Z</time>
      </trkpt>
      <trkpt lat="45.12867" lon="5.56951">
        <ele>1332.52</ele>
        <time>2021-03-08T09:18:10Z</time>
      </trkpt>
      <trkpt lat="45.12881" lon="5.56955">
        <ele>1334.45</ele>
        <time>2021-03-08T09:18:35Z</time>
      </trkpt>
      <trkpt lat="45.12882" lon="5.56955">
        <ele>1334.45</ele>
        <time>2021-03-08T09:18:36Z</time>
      </trkpt>
      <trkpt lat="45.12886" lon="5.56956">
        <ele>1335.41</ele>
        <time>2021-03-08T09:18:45Z</time>
      </trkpt>
      <trkpt lat="45.12901" lon="5.56958">
        <ele>1336.37</ele>
        <time>2021-03-08T09:19:04Z</time>
      </trkpt>
      <trkpt lat="45.12917" lon="5.56963">
        <ele>1336.85</ele>
        <time>2021-03-08T09:19:21Z</time>
      </trkpt>
      <trkpt lat="45.1293" lon="5.56963">
        <ele>1337.81</ele>
        <time>2021-03-08T09:19:41Z</time>
      </trkpt>
      <trkpt lat="45.12939" lon="5.56962">
        <ele>1338.77</ele>
        <time>2021-03-08T09:19:57Z</time>
      </trkpt>
      <trkpt lat="45.12952" lon="5.56968">
        <ele>1341.66</ele>
        <time>2021-03-08T09:20:15Z</time>
      </trkpt>
      <trkpt lat="45.12961" lon="5.56978">
        <ele>1343.58</ele>
        <time>2021-03-08T09:20:32Z</time>
      </trkpt>
      <trkpt lat="45.12969" lon="5.56986">
        <ele>1345.5</ele>
        <time>2021-03-08T09:20:46Z</time>
      </trkpt>
      <trkpt lat="45.12979" lon="5.56989">
        <ele>1347.43</ele>
        <time>2021-03-08T09:20:57Z</time>
      </trkpt>
      <trkpt lat="45.12986" lon="5.5699">
        <ele>1348.87</ele>
        <time>2021-03-08T09:21:11Z</time>
      </trkpt>
      <trkpt lat="45.12995" lon="5.56991">
        <ele>1350.79</ele>
        <time>2021-03-08T09:21:26Z</time>
      </trkpt>
      <trkpt lat="45.13003" lon="5.56998">
        <ele>1352.23</ele>
        <time>2021-03-08T09:21:43Z</time>
      </trkpt>
      <trkpt lat="45.13012" lon="5.57005">
        <ele>1355.12</ele>
        <time>2021-03-08T09:22:01Z</time>
      </trkpt>
      <trkpt lat="45.13017" lon="5.57008">
        <ele>1356.56</ele>
        <time>2021-03-08T09:22:13Z</time>
      </trkpt>
      <trkpt lat="45.13025" lon="5.57014">
        <ele>1358.48</ele>
        <time>2021-03-08T09:22:29Z</time>
      </trkpt>
      <trkpt lat="45.1303" lon="5.5702">
        <ele>1360.4</ele>
        <time>2021-03-08T09:22:43Z</time>
      </trkpt>
      <trkpt lat="45.13042" lon="5.57027">
        <ele>1363.29</ele>
        <time>2021-03-08T09:23:06Z</time>
      </trkpt>
      <trkpt lat="45.13052" lon="5.57031">
        <ele>1365.21</ele>
        <time>2021-03-08T09:23:26Z</time>
      </trkpt>
      <trkpt lat="45.13064" lon="5.57038">
        <ele>1367.61</ele>
        <time>2021-03-08T09:23:46Z</time>
      </trkpt>
      <trkpt lat="45.13082" lon="5.57044">
        <ele>1370.02</ele>
        <time>2021-03-08T09:24:09Z</time>
      </trkpt>
      <trkpt lat="45.13096" lon="5.57045">
        <ele>1371.46</ele>
        <time>2021-03-08T09:24:33Z</time>
      </trkpt>
      <trkpt lat="45.13109" lon="5.57046">
        <ele>1373.38</ele>
        <time>2021-03-08T09:24:53Z</time>
      </trkpt>
      <trkpt lat="45.13119" lon="5.57051">
        <ele>1374.82</ele>
        <time>2021-03-08T09:25:18Z</time>
      </trkpt>
      <trkpt lat="45.13132" lon="5.57058">
        <ele>1376.75</ele>
        <time>2021-03-08T09:25:37Z</time>
      </trkpt>
      <trkpt lat="45.13143" lon="5.57066">
        <ele>1379.15</ele>
        <time>2021-03-08T09:26:00Z</time>
      </trkpt>
      <trkpt lat="45.13154" lon="5.5707">
        <ele>1381.07</ele>
        <time>2021-03-08T09:26:19Z</time>
      </trkpt>
      <trkpt lat="45.13166" lon="5.57075">
        <ele>1383.96</ele>
        <time>2021-03-08T09:26:42Z</time>
      </trkpt>
      <trkpt lat="45.13178" lon="5.57073">
        <ele>1385.88</ele>
        <time>2021-03-08T09:26:59Z</time>
      </trkpt>
      <trkpt lat="45.13191" lon="5.57077">
        <ele>1387.32</ele>
        <time>2021-03-08T09:27:17Z</time>
      </trkpt>
      <trkpt lat="45.13198" lon="5.57081">
        <ele>1388.28</ele>
        <time>2021-03-08T09:27:31Z</time>
      </trkpt>
      <trkpt lat="45.13202" lon="5.57083">
        <ele>1388.76</ele>
        <time>2021-03-08T09:27:38Z</time>
      </trkpt>
      <trkpt lat="45.13214" lon="5.57092">
        <ele>1390.68</ele>
        <time>2021-03-08T09:27:59Z</time>
      </trkpt>
      <trkpt lat="45.13231" lon="5.57102">
        <ele>1392.61</ele>
        <time>2021-03-08T09:28:23Z</time>
      </trkpt>
      <trkpt lat="45.13253" lon="5.57119">
        <ele>1394.05</ele>
        <time>2021-03-08T09:28:55Z</time>
      </trkpt>
      <trkpt lat="45.13275" lon="5.57139">
        <ele>1395.97</ele>
        <time>2021-03-08T09:29:21Z</time>
      </trkpt>
      <trkpt lat="45.13289" lon="5.57155">
        <ele>1397.41</ele>
        <time>2021-03-08T09:29:44Z</time>
      </trkpt>
      <trkpt lat="45.13307" lon="5.57169">
        <ele>1398.37</ele>
        <time>2021-03-08T09:30:10Z</time>
      </trkpt>
      <trkpt lat="45.13325" lon="5.57187">
        <ele>1399.34</ele>
        <time>2021-03-08T09:30:35Z</time>
      </trkpt>
      <trkpt lat="45.1334" lon="5.57202">
        <ele>1401.26</ele>
        <time>2021-03-08T09:31:00Z</time>
      </trkpt>
      <trkpt lat="45.13356" lon="5.57209">
        <ele>1402.22</ele>
        <time>2021-03-08T09:31:20Z</time>
      </trkpt>
      <trkpt lat="45.1337" lon="5.57218">
        <ele>1403.18</ele>
        <time>2021-03-08T09:31:39Z</time>
      </trkpt>
      <trkpt lat="45.13382" lon="5.5723">
        <ele>1404.62</ele>
        <time>2021-03-08T09:31:58Z</time>
      </trkpt>
      <trkpt lat="45.13401" lon="5.57246">
        <ele>1405.58</ele>
        <time>2021-03-08T09:32:21Z</time>
      </trkpt>
      <trkpt lat="45.13417" lon="5.5726">
        <ele>1407.03</ele>
        <time>2021-03-08T09:32:43Z</time>
      </trkpt>
      <trkpt lat="45.13432" lon="5.57271">
        <ele>1409.91</ele>
        <time>2021-03-08T09:33:08Z</time>
      </trkpt>
      <trkpt lat="45.13446" lon="5.57278">
        <ele>1411.83</ele>
        <time>2021-03-08T09:33:27Z</time>
      </trkpt>
      <trkpt lat="45.1346" lon="5.57285">
        <ele>1413.76</ele>
        <time>2021-03-08T09:33:47Z</time>
      </trkpt>
      <trkpt lat="45.13476" lon="5.5729">
        <ele>1414.72</ele>
        <time>2021-03-08T09:34:05Z</time>
      </trkpt>
      <trkpt lat="45.1349" lon="5.57295">
        <ele>1414.72</ele>
        <time>2021-03-08T09:34:23Z</time>
      </trkpt>
      <trkpt lat="45.13507" lon="5.57304">
        <ele>1415.68</ele>
        <time>2021-03-08T09:34:47Z</time>
      </trkpt>
      <trkpt lat="45.13512" lon="5.57311">
        <ele>1416.64</ele>
        <time>2021-03-08T09:35:04Z</time>
      </trkpt>
      <trkpt lat="45.13515" lon="5.57311">
        <ele>1416.64</ele>
        <time>2021-03-08T09:35:51Z</time>
      </trkpt>
      <trkpt lat="45.13518" lon="5.57313">
        <ele>1416.64</ele>
        <time>2021-03-08T09:36:13Z</time>
      </trkpt>
      <trkpt lat="45.13518" lon="5.57314">
        <ele>1416.64</ele>
        <time>2021-03-08T09:36:32Z</time>
      </trkpt>
      <trkpt lat="45.13519" lon="5.57313">
        <ele>1416.64</ele>
        <time>2021-03-08T09:37:09Z</time>
      </trkpt>
      <trkpt lat="45.13518" lon="5.57311">
        <ele>1416.64</ele>
        <time>2021-03-08T09:37:47Z</time>
      </trkpt>
      <trkpt lat="45.13525" lon="5.57314">
        <ele>1416.64</ele>
        <time>2021-03-08T09:38:17Z</time>
      </trkpt>
      <trkpt lat="45.13536" lon="5.57318">
        <ele>1416.64</ele>
        <time>2021-03-08T09:38:35Z</time>
      </trkpt>
      <trkpt lat="45.1355" lon="5.57326">
        <ele>1416.64</ele>
        <time>2021-03-08T09:38:58Z</time>
      </trkpt>
      <trkpt lat="45.13554" lon="5.57328">
        <ele>1420.97</ele>
        <time>2021-03-08T09:39:05Z</time>
      </trkpt>
      <trkpt lat="45.13556" lon="5.57328">
        <ele>1420.97</ele>
        <time>2021-03-08T09:39:06Z</time>
      </trkpt>
      <trkpt lat="45.13569" lon="5.57329">
        <ele>1422.41</ele>
        <time>2021-03-08T09:39:27Z</time>
      </trkpt>
      <trkpt lat="45.13581" lon="5.57333">
        <ele>1423.85</ele>
        <time>2021-03-08T09:39:42Z</time>
      </trkpt>
      <trkpt lat="45.13592" lon="5.57336">
        <ele>1424.33</ele>
        <time>2021-03-08T09:39:56Z</time>
      </trkpt>
      <trkpt lat="45.13612" lon="5.57346">
        <ele>1422.89</ele>
        <time>2021-03-08T09:40:21Z</time>
      </trkpt>
      <trkpt lat="45.1364" lon="5.57358">
        <ele>1423.37</ele>
        <time>2021-03-08T09:40:52Z</time>
      </trkpt>
      <trkpt lat="45.13663" lon="5.57376">
        <ele>1426.73</ele>
        <time>2021-03-08T09:41:15Z</time>
      </trkpt>
      <trkpt lat="45.13685" lon="5.57387">
        <ele>1425.77</ele>
        <time>2021-03-08T09:41:41Z</time>
      </trkpt>
      <trkpt lat="45.13709" lon="5.57399">
        <ele>1425.77</ele>
        <time>2021-03-08T09:42:08Z</time>
      </trkpt>
      <trkpt lat="45.13731" lon="5.57406">
        <ele>1425.77</ele>
        <time>2021-03-08T09:42:34Z</time>
      </trkpt>
      <trkpt lat="45.13743" lon="5.57409">
        <ele>1425.77</ele>
        <time>2021-03-08T09:42:51Z</time>
      </trkpt>
      <trkpt lat="45.13755" lon="5.57419">
        <ele>1430.1</ele>
        <time>2021-03-08T09:43:09Z</time>
      </trkpt>
      <trkpt lat="45.13756" lon="5.57419">
        <ele>1430.1</ele>
        <time>2021-03-08T09:43:10Z</time>
      </trkpt>
      <trkpt lat="45.13772" lon="5.5742">
        <ele>1432.02</ele>
        <time>2021-03-08T09:43:32Z</time>
      </trkpt>
      <trkpt lat="45.13787" lon="5.57421">
        <ele>1432.98</ele>
        <time>2021-03-08T09:43:51Z</time>
      </trkpt>
      <trkpt lat="45.13799" lon="5.57414">
        <ele>1435.39</ele>
        <time>2021-03-08T09:44:13Z</time>
      </trkpt>
      <trkpt lat="45.1381" lon="5.57405">
        <ele>1437.79</ele>
        <time>2021-03-08T09:44:36Z</time>
      </trkpt>
      <trkpt lat="45.13822" lon="5.57401">
        <ele>1441.15</ele>
        <time>2021-03-08T09:44:58Z</time>
      </trkpt>
      <trkpt lat="45.13836" lon="5.57398">
        <ele>1444.04</ele>
        <time>2021-03-08T09:45:22Z</time>
      </trkpt>
      <trkpt lat="45.13846" lon="5.574">
        <ele>1445.96</ele>
        <time>2021-03-08T09:45:43Z</time>
      </trkpt>
      <trkpt lat="45.1386" lon="5.57402">
        <ele>1448.36</ele>
        <time>2021-03-08T09:46:04Z</time>
      </trkpt>
      <trkpt lat="45.1387" lon="5.57408">
        <ele>1450.29</ele>
        <time>2021-03-08T09:46:21Z</time>
      </trkpt>
      <trkpt lat="45.13883" lon="5.57414">
        <ele>1453.17</ele>
        <time>2021-03-08T09:46:46Z</time>
      </trkpt>
      <trkpt lat="45.13897" lon="5.57418">
        <ele>1456.53</ele>
        <time>2021-03-08T09:47:12Z</time>
      </trkpt>
      <trkpt lat="45.13912" lon="5.57424">
        <ele>1459.42</ele>
        <time>2021-03-08T09:47:39Z</time>
      </trkpt>
      <trkpt lat="45.13921" lon="5.57428">
        <ele>1462.78</ele>
        <time>2021-03-08T09:47:58Z</time>
      </trkpt>
      <trkpt lat="45.13933" lon="5.57425">
        <ele>1465.67</ele>
        <time>2021-03-08T09:48:21Z</time>
      </trkpt>
      <trkpt lat="45.13944" lon="5.5743">
        <ele>1469.03</ele>
        <time>2021-03-08T09:48:40Z</time>
      </trkpt>
      <trkpt lat="45.13957" lon="5.57425">
        <ele>1471.92</ele>
        <time>2021-03-08T09:49:03Z</time>
      </trkpt>
      <trkpt lat="45.13968" lon="5.57423">
        <ele>1473.36</ele>
        <time>2021-03-08T09:49:20Z</time>
      </trkpt>
      <trkpt lat="45.13982" lon="5.57424">
        <ele>1475.28</ele>
        <time>2021-03-08T09:49:44Z</time>
      </trkpt>
      <trkpt lat="45.13993" lon="5.57427">
        <ele>1478.16</ele>
        <time>2021-03-08T09:50:03Z</time>
      </trkpt>
      <trkpt lat="45.14008" lon="5.57427">
        <ele>1480.09</ele>
        <time>2021-03-08T09:50:24Z</time>
      </trkpt>
      <trkpt lat="45.14021" lon="5.5743">
        <ele>1482.01</ele>
        <time>2021-03-08T09:50:48Z</time>
      </trkpt>
      <trkpt lat="45.14037" lon="5.57454">
        <ele>1484.41</ele>
        <time>2021-03-08T09:51:17Z</time>
      </trkpt>
      <trkpt lat="45.14051" lon="5.5746">
        <ele>1485.37</ele>
        <time>2021-03-08T09:51:38Z</time>
      </trkpt>
      <trkpt lat="45.14063" lon="5.57458">
        <ele>1487.3</ele>
        <time>2021-03-08T09:51:56Z</time>
      </trkpt>
      <trkpt lat="45.14076" lon="5.57462">
        <ele>1489.22</ele>
        <time>2021-03-08T09:52:17Z</time>
      </trkpt>
      <trkpt lat="45.14088" lon="5.57469">
        <ele>1490.18</ele>
        <time>2021-03-08T09:52:35Z</time>
      </trkpt>
      <trkpt lat="45.14105" lon="5.57477">
        <ele>1491.62</ele>
        <time>2021-03-08T09:53:00Z</time>
      </trkpt>
      <trkpt lat="45.1412" lon="5.57481">
        <ele>1492.1</ele>
        <time>2021-03-08T09:53:20Z</time>
      </trkpt>
      <trkpt lat="45.14142" lon="5.57486">
        <ele>1491.62</ele>
        <time>2021-03-08T09:53:45Z</time>
      </trkpt>
      <trkpt lat="45.14161" lon="5.57482">
        <ele>1493.06</ele>
        <time>2021-03-08T09:54:09Z</time>
      </trkpt>
      <trkpt lat="45.14181" lon="5.57488">
        <ele>1495.95</ele>
        <time>2021-03-08T09:54:37Z</time>
      </trkpt>
      <trkpt lat="45.14198" lon="5.57498">
        <ele>1498.83</ele>
        <time>2021-03-08T09:55:02Z</time>
      </trkpt>
      <trkpt lat="45.14214" lon="5.57511">
        <ele>1500.76</ele>
        <time>2021-03-08T09:55:26Z</time>
      </trkpt>
      <trkpt lat="45.14229" lon="5.57524">
        <ele>1502.2</ele>
        <time>2021-03-08T09:55:46Z</time>
      </trkpt>
      <trkpt lat="45.14242" lon="5.57536">
        <ele>1504.12</ele>
        <time>2021-03-08T09:56:09Z</time>
      </trkpt>
      <trkpt lat="45.14262" lon="5.57547">
        <ele>1506.04</ele>
        <time>2021-03-08T09:56:36Z</time>
      </trkpt>
      <trkpt lat="45.14279" lon="5.57554">
        <ele>1507.97</ele>
        <time>2021-03-08T09:56:57Z</time>
      </trkpt>
      <trkpt lat="45.14294" lon="5.57558">
        <ele>1510.37</ele>
        <time>2021-03-08T09:57:16Z</time>
      </trkpt>
      <trkpt lat="45.14317" lon="5.57562">
        <ele>1511.81</ele>
        <time>2021-03-08T09:57:40Z</time>
      </trkpt>
      <trkpt lat="45.14325" lon="5.57563">
        <ele>1513.25</ele>
        <time>2021-03-08T09:58:02Z</time>
      </trkpt>
      <trkpt lat="45.14327" lon="5.57564">
        <ele>1512.77</ele>
        <time>2021-03-08T09:58:35Z</time>
      </trkpt>
      <trkpt lat="45.14328" lon="5.57564">
        <ele>1512.77</ele>
        <time>2021-03-08T09:59:06Z</time>
      </trkpt>
      <trkpt lat="45.14334" lon="5.57561">
        <ele>1513.25</ele>
        <time>2021-03-08T09:59:41Z</time>
      </trkpt>
      <trkpt lat="45.1435" lon="5.57553">
        <ele>1513.25</ele>
        <time>2021-03-08T10:00:05Z</time>
      </trkpt>
      <trkpt lat="45.14372" lon="5.57546">
        <ele>1513.25</ele>
        <time>2021-03-08T10:00:31Z</time>
      </trkpt>
      <trkpt lat="45.14386" lon="5.57543">
        <ele>1513.25</ele>
        <time>2021-03-08T10:00:42Z</time>
      </trkpt>
      <trkpt lat="45.14405" lon="5.57535">
        <ele>1515.18</ele>
        <time>2021-03-08T10:01:00Z</time>
      </trkpt>
      <trkpt lat="45.1443" lon="5.57528">
        <ele>1516.14</ele>
        <time>2021-03-08T10:01:20Z</time>
      </trkpt>
      <trkpt lat="45.1445" lon="5.57521">
        <ele>1519.5</ele>
        <time>2021-03-08T10:01:43Z</time>
      </trkpt>
      <trkpt lat="45.14476" lon="5.57521">
        <ele>1521.9</ele>
        <time>2021-03-08T10:02:12Z</time>
      </trkpt>
      <trkpt lat="45.14501" lon="5.5752">
        <ele>1522.39</ele>
        <time>2021-03-08T10:02:38Z</time>
      </trkpt>
      <trkpt lat="45.14522" lon="5.57522">
        <ele>1523.83</ele>
        <time>2021-03-08T10:03:02Z</time>
      </trkpt>
      <trkpt lat="45.14543" lon="5.57521">
        <ele>1526.23</ele>
        <time>2021-03-08T10:03:26Z</time>
      </trkpt>
      <trkpt lat="45.14564" lon="5.57541">
        <ele>1529.11</ele>
        <time>2021-03-08T10:03:53Z</time>
      </trkpt>
      <trkpt lat="45.14587" lon="5.57556">
        <ele>1532</ele>
        <time>2021-03-08T10:04:21Z</time>
      </trkpt>
      <trkpt lat="45.14608" lon="5.5756">
        <ele>1535.36</ele>
        <time>2021-03-08T10:04:45Z</time>
      </trkpt>
      <trkpt lat="45.14627" lon="5.5756">
        <ele>1537.29</ele>
        <time>2021-03-08T10:05:08Z</time>
      </trkpt>
      <trkpt lat="45.14644" lon="5.57559">
        <ele>1540.17</ele>
        <time>2021-03-08T10:05:34Z</time>
      </trkpt>
      <trkpt lat="45.14659" lon="5.5756">
        <ele>1543.05</ele>
        <time>2021-03-08T10:05:57Z</time>
      </trkpt>
      <trkpt lat="45.14674" lon="5.57563">
        <ele>1545.46</ele>
        <time>2021-03-08T10:06:22Z</time>
      </trkpt>
      <trkpt lat="45.1469" lon="5.57568">
        <ele>1546.9</ele>
        <time>2021-03-08T10:06:43Z</time>
      </trkpt>
      <trkpt lat="45.14712" lon="5.57569">
        <ele>1548.34</ele>
        <time>2021-03-08T10:07:09Z</time>
      </trkpt>
      <trkpt lat="45.14727" lon="5.5757">
        <ele>1548.82</ele>
        <time>2021-03-08T10:07:28Z</time>
      </trkpt>
      <trkpt lat="45.14741" lon="5.57573">
        <ele>1549.78</ele>
        <time>2021-03-08T10:07:46Z</time>
      </trkpt>
      <trkpt lat="45.14752" lon="5.57574">
        <ele>1551.22</ele>
        <time>2021-03-08T10:08:00Z</time>
      </trkpt>
      <trkpt lat="45.14768" lon="5.5758">
        <ele>1553.15</ele>
        <time>2021-03-08T10:08:20Z</time>
      </trkpt>
      <trkpt lat="45.14788" lon="5.57587">
        <ele>1554.11</ele>
        <time>2021-03-08T10:08:45Z</time>
      </trkpt>
      <trkpt lat="45.14802" lon="5.57592">
        <ele>1555.55</ele>
        <time>2021-03-08T10:09:04Z</time>
      </trkpt>
      <trkpt lat="45.14817" lon="5.57591">
        <ele>1556.99</ele>
        <time>2021-03-08T10:09:22Z</time>
      </trkpt>
      <trkpt lat="45.14829" lon="5.57592">
        <ele>1559.4</ele>
        <time>2021-03-08T10:09:40Z</time>
      </trkpt>
      <trkpt lat="45.1484" lon="5.57596">
        <ele>1561.32</ele>
        <time>2021-03-08T10:09:57Z</time>
      </trkpt>
      <trkpt lat="45.14843" lon="5.57597">
        <ele>1561.8</ele>
        <time>2021-03-08T10:10:12Z</time>
      </trkpt>
      <trkpt lat="45.14844" lon="5.576">
        <ele>1561.8</ele>
        <time>2021-03-08T10:10:34Z</time>
      </trkpt>
      <trkpt lat="45.14844" lon="5.57601">
        <ele>1562.28</ele>
        <time>2021-03-08T10:11:03Z</time>
      </trkpt>
      <trkpt lat="45.14844" lon="5.57601">
        <ele>1562.28</ele>
        <time>2021-03-08T10:11:40Z</time>
      </trkpt>
      <trkpt lat="45.14845" lon="5.57601">
        <ele>1562.28</ele>
        <time>2021-03-08T10:12:21Z</time>
      </trkpt>
      <trkpt lat="45.14844" lon="5.57603">
        <ele>1562.28</ele>
        <time>2021-03-08T10:13:04Z</time>
      </trkpt>
      <trkpt lat="45.14846" lon="5.57603">
        <ele>1562.28</ele>
        <time>2021-03-08T10:13:53Z</time>
      </trkpt>
      <trkpt lat="45.1485" lon="5.57609">
        <ele>1562.28</ele>
        <time>2021-03-08T10:14:18Z</time>
      </trkpt>
      <trkpt lat="45.14856" lon="5.57625">
        <ele>1562.28</ele>
        <time>2021-03-08T10:14:40Z</time>
      </trkpt>
      <trkpt lat="45.14869" lon="5.57633">
        <ele>1562.28</ele>
        <time>2021-03-08T10:15:04Z</time>
      </trkpt>
      <trkpt lat="45.1487" lon="5.57635">
        <ele>1566.61</ele>
        <time>2021-03-08T10:15:06Z</time>
      </trkpt>
      <trkpt lat="45.1487" lon="5.57635">
        <ele>1566.61</ele>
        <time>2021-03-08T10:15:07Z</time>
      </trkpt>
      <trkpt lat="45.14882" lon="5.57648">
        <ele>1567.57</ele>
        <time>2021-03-08T10:15:24Z</time>
      </trkpt>
      <trkpt lat="45.14896" lon="5.57654">
        <ele>1568.53</ele>
        <time>2021-03-08T10:15:46Z</time>
      </trkpt>
      <trkpt lat="45.14908" lon="5.57655">
        <ele>1569.97</ele>
        <time>2021-03-08T10:16:02Z</time>
      </trkpt>
      <trkpt lat="45.14921" lon="5.57658">
        <ele>1570.93</ele>
        <time>2021-03-08T10:16:20Z</time>
      </trkpt>
      <trkpt lat="45.14935" lon="5.5766">
        <ele>1571.89</ele>
        <time>2021-03-08T10:16:37Z</time>
      </trkpt>
      <trkpt lat="45.14936" lon="5.57661">
        <ele>1571.89</ele>
        <time>2021-03-08T10:16:38Z</time>
      </trkpt>
      <trkpt lat="45.14943" lon="5.57665">
        <ele>1572.37</ele>
        <time>2021-03-08T10:16:47Z</time>
      </trkpt>
      <trkpt lat="45.14945" lon="5.57667">
        <ele>1572.37</ele>
        <time>2021-03-08T10:16:50Z</time>
      </trkpt>
      <trkpt lat="45.14946" lon="5.57668">
        <ele>1572.37</ele>
        <time>2021-03-08T10:16:51Z</time>
      </trkpt>
      <trkpt lat="45.14947" lon="5.57669">
        <ele>1572.37</ele>
        <time>2021-03-08T10:16:52Z</time>
      </trkpt>
      <trkpt lat="45.14961" lon="5.57683">
        <ele>1572.37</ele>
        <time>2021-03-08T10:17:15Z</time>
      </trkpt>
      <trkpt lat="45.14983" lon="5.57686">
        <ele>1573.33</ele>
        <time>2021-03-08T10:17:38Z</time>
      </trkpt>
      <trkpt lat="45.14988" lon="5.57686">
        <ele>1573.33</ele>
        <time>2021-03-08T10:17:43Z</time>
      </trkpt>
      <trkpt lat="45.15" lon="5.57685">
        <ele>1573.33</ele>
        <time>2021-03-08T10:17:58Z</time>
      </trkpt>
      <trkpt lat="45.15018" lon="5.57683">
        <ele>1574.3</ele>
        <time>2021-03-08T10:18:20Z</time>
      </trkpt>
      <trkpt lat="45.15032" lon="5.57685">
        <ele>1576.22</ele>
        <time>2021-03-08T10:18:43Z</time>
      </trkpt>
      <trkpt lat="45.15047" lon="5.57685">
        <ele>1579.1</ele>
        <time>2021-03-08T10:19:07Z</time>
      </trkpt>
      <trkpt lat="45.15058" lon="5.5768">
        <ele>1581.51</ele>
        <time>2021-03-08T10:19:25Z</time>
      </trkpt>
      <trkpt lat="45.15071" lon="5.57681">
        <ele>1582.47</ele>
        <time>2021-03-08T10:19:42Z</time>
      </trkpt>
      <trkpt lat="45.15082" lon="5.57685">
        <ele>1584.39</ele>
        <time>2021-03-08T10:19:58Z</time>
      </trkpt>
      <trkpt lat="45.15094" lon="5.57689">
        <ele>1585.83</ele>
        <time>2021-03-08T10:20:16Z</time>
      </trkpt>
      <trkpt lat="45.15105" lon="5.57693">
        <ele>1587.27</ele>
        <time>2021-03-08T10:20:33Z</time>
      </trkpt>
      <trkpt lat="45.15115" lon="5.57695">
        <ele>1588.24</ele>
        <time>2021-03-08T10:20:49Z</time>
      </trkpt>
      <trkpt lat="45.15126" lon="5.57699">
        <ele>1589.68</ele>
        <time>2021-03-08T10:21:07Z</time>
      </trkpt>
      <trkpt lat="45.15136" lon="5.57703">
        <ele>1591.12</ele>
        <time>2021-03-08T10:21:24Z</time>
      </trkpt>
      <trkpt lat="45.15147" lon="5.57705">
        <ele>1592.56</ele>
        <time>2021-03-08T10:21:42Z</time>
      </trkpt>
      <trkpt lat="45.15157" lon="5.57708">
        <ele>1593.52</ele>
        <time>2021-03-08T10:21:57Z</time>
      </trkpt>
      <trkpt lat="45.15167" lon="5.57712">
        <ele>1594</ele>
        <time>2021-03-08T10:22:14Z</time>
      </trkpt>
      <trkpt lat="45.15182" lon="5.57717">
        <ele>1594.48</ele>
        <time>2021-03-08T10:22:34Z</time>
      </trkpt>
      <trkpt lat="45.15196" lon="5.5772">
        <ele>1595.45</ele>
        <time>2021-03-08T10:22:59Z</time>
      </trkpt>
      <trkpt lat="45.15203" lon="5.57724">
        <ele>1595.93</ele>
        <time>2021-03-08T10:23:31Z</time>
      </trkpt>
      <trkpt lat="45.15226" lon="5.5773">
        <ele>1598.81</ele>
        <time>2021-03-08T10:24:03Z</time>
      </trkpt>
      <trkpt lat="45.15242" lon="5.57739">
        <ele>1601.21</ele>
        <time>2021-03-08T10:24:23Z</time>
      </trkpt>
      <trkpt lat="45.1526" lon="5.57747">
        <ele>1603.62</ele>
        <time>2021-03-08T10:24:51Z</time>
      </trkpt>
      <trkpt lat="45.15272" lon="5.57752">
        <ele>1606.02</ele>
        <time>2021-03-08T10:25:14Z</time>
      </trkpt>
      <trkpt lat="45.15283" lon="5.57753">
        <ele>1607.46</ele>
        <time>2021-03-08T10:25:31Z</time>
      </trkpt>
      <trkpt lat="45.15295" lon="5.57754">
        <ele>1609.38</ele>
        <time>2021-03-08T10:25:49Z</time>
      </trkpt>
      <trkpt lat="45.15309" lon="5.57758">
        <ele>1610.83</ele>
        <time>2021-03-08T10:26:08Z</time>
      </trkpt>
      <trkpt lat="45.15329" lon="5.57767">
        <ele>1612.75</ele>
        <time>2021-03-08T10:26:34Z</time>
      </trkpt>
      <trkpt lat="45.15351" lon="5.5778">
        <ele>1614.67</ele>
        <time>2021-03-08T10:27:00Z</time>
      </trkpt>
      <trkpt lat="45.15371" lon="5.57786">
        <ele>1617.56</ele>
        <time>2021-03-08T10:27:26Z</time>
      </trkpt>
      <trkpt lat="45.15388" lon="5.57789">
        <ele>1620.92</ele>
        <time>2021-03-08T10:27:48Z</time>
      </trkpt>
      <trkpt lat="45.15404" lon="5.57793">
        <ele>1622.84</ele>
        <time>2021-03-08T10:28:11Z</time>
      </trkpt>
      <trkpt lat="45.15421" lon="5.57786">
        <ele>1624.77</ele>
        <time>2021-03-08T10:28:33Z</time>
      </trkpt>
      <trkpt lat="45.15434" lon="5.57781">
        <ele>1625.25</ele>
        <time>2021-03-08T10:28:51Z</time>
      </trkpt>
      <trkpt lat="45.15448" lon="5.57779">
        <ele>1625.73</ele>
        <time>2021-03-08T10:29:06Z</time>
      </trkpt>
      <trkpt lat="45.15455" lon="5.57778">
        <ele>1626.21</ele>
        <time>2021-03-08T10:29:15Z</time>
      </trkpt>
      <trkpt lat="45.15459" lon="5.57778">
        <ele>1626.21</ele>
        <time>2021-03-08T10:29:19Z</time>
      </trkpt>
      <trkpt lat="45.15474" lon="5.57781">
        <ele>1626.21</ele>
        <time>2021-03-08T10:29:36Z</time>
      </trkpt>
      <trkpt lat="45.15491" lon="5.57789">
        <ele>1625.25</ele>
        <time>2021-03-08T10:30:00Z</time>
      </trkpt>
      <trkpt lat="45.15498" lon="5.57792">
        <ele>1624.28</ele>
        <time>2021-03-08T10:30:28Z</time>
      </trkpt>
      <trkpt lat="45.15502" lon="5.57798">
        <ele>1623.8</ele>
        <time>2021-03-08T10:30:56Z</time>
      </trkpt>
      <trkpt lat="45.15514" lon="5.57809">
        <ele>1623.32</ele>
        <time>2021-03-08T10:31:22Z</time>
      </trkpt>
      <trkpt lat="45.15528" lon="5.5782">
        <ele>1622.84</ele>
        <time>2021-03-08T10:31:47Z</time>
      </trkpt>
      <trkpt lat="45.15545" lon="5.57838">
        <ele>1620.44</ele>
        <time>2021-03-08T10:32:11Z</time>
      </trkpt>
      <trkpt lat="45.15562" lon="5.57857">
        <ele>1619.48</ele>
        <time>2021-03-08T10:32:36Z</time>
      </trkpt>
      <trkpt lat="45.15571" lon="5.57861">
        <ele>1619</ele>
        <time>2021-03-08T10:32:57Z</time>
      </trkpt>
      <trkpt lat="45.15571" lon="5.57862">
        <ele>1619</ele>
        <time>2021-03-08T10:33:34Z</time>
      </trkpt>
      <trkpt lat="45.15567" lon="5.5786">
        <ele>1619</ele>
        <time>2021-03-08T10:34:13Z</time>
      </trkpt>
      <trkpt lat="45.15572" lon="5.57861">
        <ele>1618.52</ele>
        <time>2021-03-08T10:34:49Z</time>
      </trkpt>
      <trkpt lat="45.15571" lon="5.57859">
        <ele>1618.52</ele>
        <time>2021-03-08T10:35:29Z</time>
      </trkpt>
      <trkpt lat="45.15569" lon="5.57863">
        <ele>1618.52</ele>
        <time>2021-03-08T10:35:49Z</time>
      </trkpt>
      <trkpt lat="45.15568" lon="5.57866">
        <ele>1618.52</ele>
        <time>2021-03-08T10:36:33Z</time>
      </trkpt>
      <trkpt lat="45.15566" lon="5.57864">
        <ele>1618.52</ele>
        <time>2021-03-08T10:37:21Z</time>
      </trkpt>
      <trkpt lat="45.15568" lon="5.57862">
        <ele>1618.52</ele>
        <time>2021-03-08T10:37:27Z</time>
      </trkpt>
      <trkpt lat="45.15575" lon="5.57867">
        <ele>1618.52</ele>
        <time>2021-03-08T10:37:58Z</time>
      </trkpt>
      <trkpt lat="45.15577" lon="5.5788">
        <ele>1618.52</ele>
        <time>2021-03-08T10:38:17Z</time>
      </trkpt>
      <trkpt lat="45.15571" lon="5.57903">
        <ele>1618.52</ele>
        <time>2021-03-08T10:38:39Z</time>
      </trkpt>
      <trkpt lat="45.15571" lon="5.57911">
        <ele>1618.52</ele>
        <time>2021-03-08T10:38:54Z</time>
      </trkpt>
      <trkpt lat="45.15569" lon="5.57929">
        <ele>1618.52</ele>
        <time>2021-03-08T10:39:10Z</time>
      </trkpt>
      <trkpt lat="45.1557" lon="5.57937">
        <ele>1615.15</ele>
        <time>2021-03-08T10:39:17Z</time>
      </trkpt>
      <trkpt lat="45.1557" lon="5.57939">
        <ele>1613.23</ele>
        <time>2021-03-08T10:39:19Z</time>
      </trkpt>
      <trkpt lat="45.15562" lon="5.57949">
        <ele>1610.35</ele>
        <time>2021-03-08T10:39:37Z</time>
      </trkpt>
      <trkpt lat="45.15549" lon="5.57957">
        <ele>1607.46</ele>
        <time>2021-03-08T10:39:58Z</time>
      </trkpt>
      <trkpt lat="45.15542" lon="5.57964">
        <ele>1604.1</ele>
        <time>2021-03-08T10:40:11Z</time>
      </trkpt>
      <trkpt lat="45.15536" lon="5.57969">
        <ele>1602.17</ele>
        <time>2021-03-08T10:40:20Z</time>
      </trkpt>
      <trkpt lat="45.15522" lon="5.57971">
        <ele>1598.81</ele>
        <time>2021-03-08T10:40:35Z</time>
      </trkpt>
      <trkpt lat="45.15514" lon="5.57974">
        <ele>1596.41</ele>
        <time>2021-03-08T10:40:48Z</time>
      </trkpt>
      <trkpt lat="45.15513" lon="5.57976">
        <ele>1596.41</ele>
        <time>2021-03-08T10:40:50Z</time>
      </trkpt>
      <trkpt lat="45.15502" lon="5.57976">
        <ele>1593.04</ele>
        <time>2021-03-08T10:41:05Z</time>
      </trkpt>
      <trkpt lat="45.15492" lon="5.57979">
        <ele>1590.16</ele>
        <time>2021-03-08T10:41:16Z</time>
      </trkpt>
      <trkpt lat="45.15481" lon="5.5798">
        <ele>1586.79</ele>
        <time>2021-03-08T10:41:28Z</time>
      </trkpt>
      <trkpt lat="45.1547" lon="5.57983">
        <ele>1583.43</ele>
        <time>2021-03-08T10:41:40Z</time>
      </trkpt>
      <trkpt lat="45.1546" lon="5.57985">
        <ele>1580.54</ele>
        <time>2021-03-08T10:41:53Z</time>
      </trkpt>
      <trkpt lat="45.15449" lon="5.57986">
        <ele>1577.18</ele>
        <time>2021-03-08T10:42:09Z</time>
      </trkpt>
      <trkpt lat="45.15437" lon="5.57987">
        <ele>1574.3</ele>
        <time>2021-03-08T10:42:22Z</time>
      </trkpt>
      <trkpt lat="45.15425" lon="5.57993">
        <ele>1570.93</ele>
        <time>2021-03-08T10:42:36Z</time>
      </trkpt>
      <trkpt lat="45.15416" lon="5.57996">
        <ele>1567.57</ele>
        <time>2021-03-08T10:42:49Z</time>
      </trkpt>
      <trkpt lat="45.15408" lon="5.58">
        <ele>1564.68</ele>
        <time>2021-03-08T10:43:03Z</time>
      </trkpt>
      <trkpt lat="45.15405" lon="5.58004">
        <ele>1562.76</ele>
        <time>2021-03-08T10:43:24Z</time>
      </trkpt>
      <trkpt lat="45.154" lon="5.58002">
        <ele>1562.28</ele>
        <time>2021-03-08T10:43:55Z</time>
      </trkpt>
      <trkpt lat="45.1539" lon="5.58004">
        <ele>1558.92</ele>
        <time>2021-03-08T10:44:11Z</time>
      </trkpt>
      <trkpt lat="45.15378" lon="5.58008">
        <ele>1556.03</ele>
        <time>2021-03-08T10:44:25Z</time>
      </trkpt>
      <trkpt lat="45.15365" lon="5.58008">
        <ele>1553.15</ele>
        <time>2021-03-08T10:44:40Z</time>
      </trkpt>
      <trkpt lat="45.15355" lon="5.58007">
        <ele>1550.74</ele>
        <time>2021-03-08T10:44:57Z</time>
      </trkpt>
      <trkpt lat="45.15342" lon="5.58006">
        <ele>1547.86</ele>
        <time>2021-03-08T10:45:14Z</time>
      </trkpt>
      <trkpt lat="45.1533" lon="5.58006">
        <ele>1544.98</ele>
        <time>2021-03-08T10:45:29Z</time>
      </trkpt>
      <trkpt lat="45.15319" lon="5.58004">
        <ele>1541.61</ele>
        <time>2021-03-08T10:45:49Z</time>
      </trkpt>
      <trkpt lat="45.1531" lon="5.58001">
        <ele>1540.17</ele>
        <time>2021-03-08T10:46:06Z</time>
      </trkpt>
      <trkpt lat="45.15302" lon="5.58002">
        <ele>1538.73</ele>
        <time>2021-03-08T10:46:15Z</time>
      </trkpt>
      <trkpt lat="45.15288" lon="5.58003">
        <ele>1535.84</ele>
        <time>2021-03-08T10:46:31Z</time>
      </trkpt>
      <trkpt lat="45.15273" lon="5.58">
        <ele>1532.48</ele>
        <time>2021-03-08T10:46:49Z</time>
      </trkpt>
      <trkpt lat="45.15266" lon="5.57999">
        <ele>1531.04</ele>
        <time>2021-03-08T10:46:57Z</time>
      </trkpt>
      <trkpt lat="45.15265" lon="5.57999">
        <ele>1531.04</ele>
        <time>2021-03-08T10:46:58Z</time>
      </trkpt>
      <trkpt lat="45.15256" lon="5.57997">
        <ele>1528.63</ele>
        <time>2021-03-08T10:47:07Z</time>
      </trkpt>
      <trkpt lat="45.15242" lon="5.57997">
        <ele>1525.75</ele>
        <time>2021-03-08T10:47:23Z</time>
      </trkpt>
      <trkpt lat="45.15236" lon="5.57997">
        <ele>1523.83</ele>
        <time>2021-03-08T10:47:36Z</time>
      </trkpt>
      <trkpt lat="45.1523" lon="5.57997">
        <ele>1522.39</ele>
        <time>2021-03-08T10:47:43Z</time>
      </trkpt>
      <trkpt lat="45.15222" lon="5.57995">
        <ele>1520.94</ele>
        <time>2021-03-08T10:47:53Z</time>
      </trkpt>
      <trkpt lat="45.15221" lon="5.57995">
        <ele>1520.46</ele>
        <time>2021-03-08T10:47:54Z</time>
      </trkpt>
      <trkpt lat="45.15219" lon="5.57995">
        <ele>1520.46</ele>
        <time>2021-03-08T10:47:55Z</time>
      </trkpt>
      <trkpt lat="45.15206" lon="5.57992">
        <ele>1517.58</ele>
        <time>2021-03-08T10:48:11Z</time>
      </trkpt>
      <trkpt lat="45.15193" lon="5.5799">
        <ele>1514.21</ele>
        <time>2021-03-08T10:48:25Z</time>
      </trkpt>
      <trkpt lat="45.1519" lon="5.5799">
        <ele>1513.73</ele>
        <time>2021-03-08T10:48:28Z</time>
      </trkpt>
      <trkpt lat="45.15175" lon="5.57989">
        <ele>1510.37</ele>
        <time>2021-03-08T10:48:43Z</time>
      </trkpt>
      <trkpt lat="45.15172" lon="5.57986">
        <ele>1508.93</ele>
        <time>2021-03-08T10:48:56Z</time>
      </trkpt>
      <trkpt lat="45.15172" lon="5.57983">
        <ele>1508.45</ele>
        <time>2021-03-08T10:49:15Z</time>
      </trkpt>
      <trkpt lat="45.15167" lon="5.57984">
        <ele>1507.97</ele>
        <time>2021-03-08T10:49:34Z</time>
      </trkpt>
      <trkpt lat="45.15159" lon="5.57985">
        <ele>1507</ele>
        <time>2021-03-08T10:49:43Z</time>
      </trkpt>
      <trkpt lat="45.15157" lon="5.57988">
        <ele>1506.04</ele>
        <time>2021-03-08T10:49:46Z</time>
      </trkpt>
      <trkpt lat="45.15157" lon="5.5799">
        <ele>1506.04</ele>
        <time>2021-03-08T10:49:47Z</time>
      </trkpt>
      <trkpt lat="45.15158" lon="5.57991">
        <ele>1505.56</ele>
        <time>2021-03-08T10:49:48Z</time>
      </trkpt>
      <trkpt lat="45.15158" lon="5.57993">
        <ele>1505.56</ele>
        <time>2021-03-08T10:49:49Z</time>
      </trkpt>
      <trkpt lat="45.15162" lon="5.58007">
        <ele>1502.68</ele>
        <time>2021-03-08T10:50:00Z</time>
      </trkpt>
      <trkpt lat="45.15169" lon="5.58022">
        <ele>1499.79</ele>
        <time>2021-03-08T10:50:13Z</time>
      </trkpt>
      <trkpt lat="45.15183" lon="5.58034">
        <ele>1496.43</ele>
        <time>2021-03-08T10:50:26Z</time>
      </trkpt>
      <trkpt lat="45.15195" lon="5.58042">
        <ele>1493.55</ele>
        <time>2021-03-08T10:50:40Z</time>
      </trkpt>
      <trkpt lat="45.15211" lon="5.58054">
        <ele>1490.18</ele>
        <time>2021-03-08T10:50:56Z</time>
      </trkpt>
      <trkpt lat="45.15223" lon="5.58069">
        <ele>1487.3</ele>
        <time>2021-03-08T10:51:11Z</time>
      </trkpt>
      <trkpt lat="45.15227" lon="5.58078">
        <ele>1485.37</ele>
        <time>2021-03-08T10:51:18Z</time>
      </trkpt>
      <trkpt lat="45.15238" lon="5.58092">
        <ele>1482.49</ele>
        <time>2021-03-08T10:51:32Z</time>
      </trkpt>
      <trkpt lat="45.15246" lon="5.58105">
        <ele>1479.13</ele>
        <time>2021-03-08T10:51:45Z</time>
      </trkpt>
      <trkpt lat="45.15249" lon="5.5811">
        <ele>1477.68</ele>
        <time>2021-03-08T10:51:50Z</time>
      </trkpt>
      <trkpt lat="45.15259" lon="5.58126">
        <ele>1474.8</ele>
        <time>2021-03-08T10:52:04Z</time>
      </trkpt>
      <trkpt lat="45.15263" lon="5.58138">
        <ele>1472.88</ele>
        <time>2021-03-08T10:52:13Z</time>
      </trkpt>
      <trkpt lat="45.15264" lon="5.5814">
        <ele>1472.4</ele>
        <time>2021-03-08T10:52:14Z</time>
      </trkpt>
      <trkpt lat="45.15273" lon="5.58155">
        <ele>1469.51</ele>
        <time>2021-03-08T10:52:28Z</time>
      </trkpt>
      <trkpt lat="45.15284" lon="5.58165">
        <ele>1466.63</ele>
        <time>2021-03-08T10:52:41Z</time>
      </trkpt>
      <trkpt lat="45.15292" lon="5.58177">
        <ele>1463.74</ele>
        <time>2021-03-08T10:52:54Z</time>
      </trkpt>
      <trkpt lat="45.15305" lon="5.58192">
        <ele>1460.38</ele>
        <time>2021-03-08T10:53:11Z</time>
      </trkpt>
      <trkpt lat="45.15315" lon="5.58207">
        <ele>1458.46</ele>
        <time>2021-03-08T10:53:29Z</time>
      </trkpt>
      <trkpt lat="45.15318" lon="5.58206">
        <ele>1457.02</ele>
        <time>2021-03-08T10:54:11Z</time>
      </trkpt>
      <trkpt lat="45.15324" lon="5.58217">
        <ele>1455.57</ele>
        <time>2021-03-08T10:54:41Z</time>
      </trkpt>
      <trkpt lat="45.15329" lon="5.58226">
        <ele>1453.17</ele>
        <time>2021-03-08T10:55:01Z</time>
      </trkpt>
      <trkpt lat="45.15333" lon="5.58232">
        <ele>1451.25</ele>
        <time>2021-03-08T10:55:19Z</time>
      </trkpt>
      <trkpt lat="45.15336" lon="5.58238">
        <ele>1449.32</ele>
        <time>2021-03-08T10:55:34Z</time>
      </trkpt>
      <trkpt lat="45.15349" lon="5.58246">
        <ele>1446.44</ele>
        <time>2021-03-08T10:55:52Z</time>
      </trkpt>
      <trkpt lat="45.1536" lon="5.58248">
        <ele>1444.04</ele>
        <time>2021-03-08T10:56:12Z</time>
      </trkpt>
      <trkpt lat="45.15372" lon="5.58252">
        <ele>1440.67</ele>
        <time>2021-03-08T10:56:28Z</time>
      </trkpt>
      <trkpt lat="45.15383" lon="5.58257">
        <ele>1437.79</ele>
        <time>2021-03-08T10:56:45Z</time>
      </trkpt>
      <trkpt lat="45.15401" lon="5.58273">
        <ele>1436.83</ele>
        <time>2021-03-08T10:57:08Z</time>
      </trkpt>
      <trkpt lat="45.15403" lon="5.58279">
        <ele>1436.83</ele>
        <time>2021-03-08T10:57:13Z</time>
      </trkpt>
      <trkpt lat="45.15411" lon="5.58305">
        <ele>1437.31</ele>
        <time>2021-03-08T10:57:31Z</time>
      </trkpt>
      <trkpt lat="45.15423" lon="5.58322">
        <ele>1437.79</ele>
        <time>2021-03-08T10:57:47Z</time>
      </trkpt>
      <trkpt lat="45.15436" lon="5.58335">
        <ele>1438.27</ele>
        <time>2021-03-08T10:58:03Z</time>
      </trkpt>
      <trkpt lat="45.15451" lon="5.58347">
        <ele>1439.23</ele>
        <time>2021-03-08T10:58:23Z</time>
      </trkpt>
      <trkpt lat="45.15466" lon="5.58359">
        <ele>1439.23</ele>
        <time>2021-03-08T10:58:48Z</time>
      </trkpt>
      <trkpt lat="45.15475" lon="5.58361">
        <ele>1439.23</ele>
        <time>2021-03-08T10:59:00Z</time>
      </trkpt>
      <trkpt lat="45.15486" lon="5.58373">
        <ele>1440.19</ele>
        <time>2021-03-08T10:59:22Z</time>
      </trkpt>
      <trkpt lat="45.15504" lon="5.58382">
        <ele>1441.63</ele>
        <time>2021-03-08T10:59:45Z</time>
      </trkpt>
      <trkpt lat="45.15529" lon="5.58389">
        <ele>1442.11</ele>
        <time>2021-03-08T11:00:11Z</time>
      </trkpt>
      <trkpt lat="45.15549" lon="5.58386">
        <ele>1443.08</ele>
        <time>2021-03-08T11:00:33Z</time>
      </trkpt>
      <trkpt lat="45.1557" lon="5.58373">
        <ele>1444.04</ele>
        <time>2021-03-08T11:01:02Z</time>
      </trkpt>
      <trkpt lat="45.15591" lon="5.58382">
        <ele>1444.04</ele>
        <time>2021-03-08T11:01:27Z</time>
      </trkpt>
      <trkpt lat="45.1561" lon="5.58405">
        <ele>1445.48</ele>
        <time>2021-03-08T11:01:52Z</time>
      </trkpt>
      <trkpt lat="45.15618" lon="5.58424">
        <ele>1446.92</ele>
        <time>2021-03-08T11:02:08Z</time>
      </trkpt>
      <trkpt lat="45.15632" lon="5.58435">
        <ele>1448.36</ele>
        <time>2021-03-08T11:02:26Z</time>
      </trkpt>
      <trkpt lat="45.15658" lon="5.5845">
        <ele>1450.77</ele>
        <time>2021-03-08T11:02:54Z</time>
      </trkpt>
      <trkpt lat="45.15681" lon="5.58459">
        <ele>1452.21</ele>
        <time>2021-03-08T11:03:19Z</time>
      </trkpt>
      <trkpt lat="45.15703" lon="5.58464">
        <ele>1453.17</ele>
        <time>2021-03-08T11:03:42Z</time>
      </trkpt>
      <trkpt lat="45.15727" lon="5.58471">
        <ele>1454.61</ele>
        <time>2021-03-08T11:04:10Z</time>
      </trkpt>
      <trkpt lat="45.1575" lon="5.58474">
        <ele>1456.05</ele>
        <time>2021-03-08T11:04:36Z</time>
      </trkpt>
      <trkpt lat="45.15764" lon="5.58474">
        <ele>1457.5</ele>
        <time>2021-03-08T11:04:56Z</time>
      </trkpt>
      <trkpt lat="45.15766" lon="5.58472">
        <ele>1457.98</ele>
        <time>2021-03-08T11:05:16Z</time>
      </trkpt>
      <trkpt lat="45.15766" lon="5.58482">
        <ele>1457.02</ele>
        <time>2021-03-08T11:05:37Z</time>
      </trkpt>
      <trkpt lat="45.15776" lon="5.58472">
        <ele>1457.02</ele>
        <time>2021-03-08T11:05:59Z</time>
      </trkpt>
      <trkpt lat="45.15785" lon="5.58467">
        <ele>1458.94</ele>
        <time>2021-03-08T11:06:20Z</time>
      </trkpt>
      <trkpt lat="45.15793" lon="5.58462">
        <ele>1459.42</ele>
        <time>2021-03-08T11:06:41Z</time>
      </trkpt>
      <trkpt lat="45.15806" lon="5.58454">
        <ele>1459.9</ele>
        <time>2021-03-08T11:07:03Z</time>
      </trkpt>
      <trkpt lat="45.15826" lon="5.58441">
        <ele>1461.34</ele>
        <time>2021-03-08T11:07:30Z</time>
      </trkpt>
      <trkpt lat="45.15841" lon="5.58432">
        <ele>1462.3</ele>
        <time>2021-03-08T11:07:53Z</time>
      </trkpt>
      <trkpt lat="45.15856" lon="5.58418">
        <ele>1463.26</ele>
        <time>2021-03-08T11:08:16Z</time>
      </trkpt>
      <trkpt lat="45.15869" lon="5.58412">
        <ele>1464.23</ele>
        <time>2021-03-08T11:08:35Z</time>
      </trkpt>
      <trkpt lat="45.15883" lon="5.58404">
        <ele>1464.71</ele>
        <time>2021-03-08T11:08:54Z</time>
      </trkpt>
      <trkpt lat="45.15888" lon="5.58403">
        <ele>1465.19</ele>
        <time>2021-03-08T11:08:59Z</time>
      </trkpt>
      <trkpt lat="45.15899" lon="5.58407">
        <ele>1465.19</ele>
        <time>2021-03-08T11:09:14Z</time>
      </trkpt>
      <trkpt lat="45.15913" lon="5.58409">
        <ele>1465.19</ele>
        <time>2021-03-08T11:09:29Z</time>
      </trkpt>
      <trkpt lat="45.15925" lon="5.58414">
        <ele>1464.71</ele>
        <time>2021-03-08T11:09:44Z</time>
      </trkpt>
      <trkpt lat="45.15939" lon="5.58422">
        <ele>1463.26</ele>
        <time>2021-03-08T11:10:00Z</time>
      </trkpt>
      <trkpt lat="45.15941" lon="5.58424">
        <ele>1463.26</ele>
        <time>2021-03-08T11:10:03Z</time>
      </trkpt>
      <trkpt lat="45.15943" lon="5.58427">
        <ele>1462.78</ele>
        <time>2021-03-08T11:10:05Z</time>
      </trkpt>
      <trkpt lat="45.15943" lon="5.58428">
        <ele>1462.78</ele>
        <time>2021-03-08T11:10:06Z</time>
      </trkpt>
      <trkpt lat="45.15957" lon="5.58439">
        <ele>1461.82</ele>
        <time>2021-03-08T11:10:21Z</time>
      </trkpt>
      <trkpt lat="45.15973" lon="5.5845">
        <ele>1460.38</ele>
        <time>2021-03-08T11:10:38Z</time>
      </trkpt>
      <trkpt lat="45.15989" lon="5.58463">
        <ele>1459.42</ele>
        <time>2021-03-08T11:10:56Z</time>
      </trkpt>
      <trkpt lat="45.16005" lon="5.58471">
        <ele>1457.98</ele>
        <time>2021-03-08T11:11:11Z</time>
      </trkpt>
      <trkpt lat="45.16006" lon="5.58471">
        <ele>1457.98</ele>
        <time>2021-03-08T11:11:12Z</time>
      </trkpt>
      <trkpt lat="45.16018" lon="5.58485">
        <ele>1457.5</ele>
        <time>2021-03-08T11:11:28Z</time>
      </trkpt>
      <trkpt lat="45.16032" lon="5.58507">
        <ele>1457.02</ele>
        <time>2021-03-08T11:11:51Z</time>
      </trkpt>
      <trkpt lat="45.16045" lon="5.58521">
        <ele>1457.02</ele>
        <time>2021-03-08T11:12:13Z</time>
      </trkpt>
      <trkpt lat="45.16053" lon="5.58537">
        <ele>1457.02</ele>
        <time>2021-03-08T11:12:30Z</time>
      </trkpt>
      <trkpt lat="45.1606" lon="5.58553">
        <ele>1455.57</ele>
        <time>2021-03-08T11:12:46Z</time>
      </trkpt>
      <trkpt lat="45.16065" lon="5.58573">
        <ele>1454.13</ele>
        <time>2021-03-08T11:13:04Z</time>
      </trkpt>
      <trkpt lat="45.16072" lon="5.58589">
        <ele>1453.17</ele>
        <time>2021-03-08T11:13:20Z</time>
      </trkpt>
      <trkpt lat="45.16075" lon="5.58593">
        <ele>1452.69</ele>
        <time>2021-03-08T11:13:25Z</time>
      </trkpt>
      <trkpt lat="45.16081" lon="5.58597">
        <ele>1452.21</ele>
        <time>2021-03-08T11:13:32Z</time>
      </trkpt>
      <trkpt lat="45.16093" lon="5.58597">
        <ele>1451.73</ele>
        <time>2021-03-08T11:13:42Z</time>
      </trkpt>
      <trkpt lat="45.16094" lon="5.58596">
        <ele>1451.73</ele>
        <time>2021-03-08T11:13:43Z</time>
      </trkpt>
      <trkpt lat="45.16096" lon="5.58596">
        <ele>1451.25</ele>
        <time>2021-03-08T11:13:44Z</time>
      </trkpt>
      <trkpt lat="45.16115" lon="5.58586">
        <ele>1449.32</ele>
        <time>2021-03-08T11:14:03Z</time>
      </trkpt>
      <trkpt lat="45.16128" lon="5.58588">
        <ele>1447.4</ele>
        <time>2021-03-08T11:14:19Z</time>
      </trkpt>
      <trkpt lat="45.16134" lon="5.58592">
        <ele>1445.96</ele>
        <time>2021-03-08T11:14:25Z</time>
      </trkpt>
      <trkpt lat="45.16135" lon="5.58592">
        <ele>1445.96</ele>
        <time>2021-03-08T11:14:26Z</time>
      </trkpt>
      <trkpt lat="45.1615" lon="5.58598">
        <ele>1444.04</ele>
        <time>2021-03-08T11:14:41Z</time>
      </trkpt>
      <trkpt lat="45.16163" lon="5.58606">
        <ele>1441.63</ele>
        <time>2021-03-08T11:14:54Z</time>
      </trkpt>
      <trkpt lat="45.16177" lon="5.58616">
        <ele>1439.23</ele>
        <time>2021-03-08T11:15:09Z</time>
      </trkpt>
      <trkpt lat="45.16197" lon="5.58636">
        <ele>1437.79</ele>
        <time>2021-03-08T11:15:27Z</time>
      </trkpt>
      <trkpt lat="45.16213" lon="5.58652">
        <ele>1435.87</ele>
        <time>2021-03-08T11:15:43Z</time>
      </trkpt>
      <trkpt lat="45.16218" lon="5.58656">
        <ele>1434.91</ele>
        <time>2021-03-08T11:15:48Z</time>
      </trkpt>
      <trkpt lat="45.16219" lon="5.58657">
        <ele>1434.91</ele>
        <time>2021-03-08T11:15:49Z</time>
      </trkpt>
      <trkpt lat="45.1622" lon="5.58658">
        <ele>1434.91</ele>
        <time>2021-03-08T11:15:50Z</time>
      </trkpt>
      <trkpt lat="45.16233" lon="5.58673">
        <ele>1432.98</ele>
        <time>2021-03-08T11:16:05Z</time>
      </trkpt>
      <trkpt lat="45.16249" lon="5.58691">
        <ele>1432.02</ele>
        <time>2021-03-08T11:16:23Z</time>
      </trkpt>
      <trkpt lat="45.16251" lon="5.58693">
        <ele>1432.02</ele>
        <time>2021-03-08T11:16:25Z</time>
      </trkpt>
      <trkpt lat="45.16252" lon="5.58694">
        <ele>1432.02</ele>
        <time>2021-03-08T11:16:26Z</time>
      </trkpt>
      <trkpt lat="45.16253" lon="5.58696">
        <ele>1432.02</ele>
        <time>2021-03-08T11:16:27Z</time>
      </trkpt>
      <trkpt lat="45.16266" lon="5.58711">
        <ele>1432.02</ele>
        <time>2021-03-08T11:16:39Z</time>
      </trkpt>
      <trkpt lat="45.16266" lon="5.58712">
        <ele>1432.02</ele>
        <time>2021-03-08T11:16:40Z</time>
      </trkpt>
      <trkpt lat="45.16285" lon="5.58737">
        <ele>1434.42</ele>
        <time>2021-03-08T11:17:00Z</time>
      </trkpt>
      <trkpt lat="45.16295" lon="5.58734">
        <ele>1436.35</ele>
        <time>2021-03-08T11:17:18Z</time>
      </trkpt>
      <trkpt lat="45.16309" lon="5.58729">
        <ele>1439.71</ele>
        <time>2021-03-08T11:17:40Z</time>
      </trkpt>
      <trkpt lat="45.16309" lon="5.58727">
        <ele>1441.15</ele>
        <time>2021-03-08T11:17:57Z</time>
      </trkpt>
      <trkpt lat="45.16309" lon="5.58726">
        <ele>1439.71</ele>
        <time>2021-03-08T11:18:19Z</time>
      </trkpt>
      <trkpt lat="45.16306" lon="5.58728">
        <ele>1439.23</ele>
        <time>2021-03-08T11:19:00Z</time>
      </trkpt>
      <trkpt lat="45.16308" lon="5.58726">
        <ele>1439.23</ele>
        <time>2021-03-08T11:19:28Z</time>
      </trkpt>
      <trkpt lat="45.16314" lon="5.58726">
        <ele>1440.67</ele>
        <time>2021-03-08T11:19:53Z</time>
      </trkpt>
      <trkpt lat="45.16328" lon="5.58719">
        <ele>1444.04</ele>
        <time>2021-03-08T11:20:14Z</time>
      </trkpt>
      <trkpt lat="45.16343" lon="5.58717">
        <ele>1446.92</ele>
        <time>2021-03-08T11:20:35Z</time>
      </trkpt>
      <trkpt lat="45.16353" lon="5.58716">
        <ele>1450.29</ele>
        <time>2021-03-08T11:20:52Z</time>
      </trkpt>
      <trkpt lat="45.16362" lon="5.5871">
        <ele>1453.17</ele>
        <time>2021-03-08T11:21:08Z</time>
      </trkpt>
      <trkpt lat="45.1637" lon="5.58706">
        <ele>1456.53</ele>
        <time>2021-03-08T11:21:27Z</time>
      </trkpt>
      <trkpt lat="45.16378" lon="5.58705">
        <ele>1459.42</ele>
        <time>2021-03-08T11:21:45Z</time>
      </trkpt>
      <trkpt lat="45.16387" lon="5.58704">
        <ele>1462.78</ele>
        <time>2021-03-08T11:22:01Z</time>
      </trkpt>
      <trkpt lat="45.16398" lon="5.58701">
        <ele>1465.67</ele>
        <time>2021-03-08T11:22:20Z</time>
      </trkpt>
      <trkpt lat="45.16406" lon="5.58697">
        <ele>1468.55</ele>
        <time>2021-03-08T11:22:38Z</time>
      </trkpt>
      <trkpt lat="45.16417" lon="5.58697">
        <ele>1471.92</ele>
        <time>2021-03-08T11:22:58Z</time>
      </trkpt>
      <trkpt lat="45.16428" lon="5.58694">
        <ele>1474.8</ele>
        <time>2021-03-08T11:23:21Z</time>
      </trkpt>
      <trkpt lat="45.16445" lon="5.58694">
        <ele>1478.16</ele>
        <time>2021-03-08T11:23:43Z</time>
      </trkpt>
      <trkpt lat="45.16458" lon="5.58688">
        <ele>1481.05</ele>
        <time>2021-03-08T11:24:05Z</time>
      </trkpt>
      <trkpt lat="45.16466" lon="5.58681">
        <ele>1484.41</ele>
        <time>2021-03-08T11:24:22Z</time>
      </trkpt>
      <trkpt lat="45.16478" lon="5.58677">
        <ele>1487.3</ele>
        <time>2021-03-08T11:24:42Z</time>
      </trkpt>
      <trkpt lat="45.16489" lon="5.58672">
        <ele>1490.18</ele>
        <time>2021-03-08T11:25:03Z</time>
      </trkpt>
      <trkpt lat="45.16501" lon="5.58671">
        <ele>1493.55</ele>
        <time>2021-03-08T11:25:21Z</time>
      </trkpt>
      <trkpt lat="45.16519" lon="5.58671">
        <ele>1496.43</ele>
        <time>2021-03-08T11:25:44Z</time>
      </trkpt>
      <trkpt lat="45.16532" lon="5.58671">
        <ele>1499.79</ele>
        <time>2021-03-08T11:26:05Z</time>
      </trkpt>
      <trkpt lat="45.16552" lon="5.58667">
        <ele>1502.68</ele>
        <time>2021-03-08T11:26:29Z</time>
      </trkpt>
      <trkpt lat="45.16572" lon="5.58658">
        <ele>1505.56</ele>
        <time>2021-03-08T11:26:56Z</time>
      </trkpt>
      <trkpt lat="45.16593" lon="5.58653">
        <ele>1507.97</ele>
        <time>2021-03-08T11:27:21Z</time>
      </trkpt>
      <trkpt lat="45.16614" lon="5.58651">
        <ele>1510.37</ele>
        <time>2021-03-08T11:27:46Z</time>
      </trkpt>
      <trkpt lat="45.16637" lon="5.58649">
        <ele>1513.73</ele>
        <time>2021-03-08T11:28:14Z</time>
      </trkpt>
      <trkpt lat="45.16656" lon="5.58645">
        <ele>1516.62</ele>
        <time>2021-03-08T11:28:39Z</time>
      </trkpt>
      <trkpt lat="45.16669" lon="5.58645">
        <ele>1519.02</ele>
        <time>2021-03-08T11:28:58Z</time>
      </trkpt>
      <trkpt lat="45.16689" lon="5.58647">
        <ele>1521.9</ele>
        <time>2021-03-08T11:29:26Z</time>
      </trkpt>
      <trkpt lat="45.1671" lon="5.58641">
        <ele>1524.79</ele>
        <time>2021-03-08T11:29:55Z</time>
      </trkpt>
      <trkpt lat="45.16726" lon="5.5864">
        <ele>1527.67</ele>
        <time>2021-03-08T11:30:19Z</time>
      </trkpt>
      <trkpt lat="45.16728" lon="5.58639">
        <ele>1527.67</ele>
        <time>2021-03-08T11:30:20Z</time>
      </trkpt>
      <trkpt lat="45.16759" lon="5.58649">
        <ele>1531.04</ele>
        <time>2021-03-08T11:30:52Z</time>
      </trkpt>
      <trkpt lat="45.16784" lon="5.5865">
        <ele>1533.44</ele>
        <time>2021-03-08T11:31:20Z</time>
      </trkpt>
      <trkpt lat="45.16794" lon="5.58646">
        <ele>1536.32</ele>
        <time>2021-03-08T11:31:43Z</time>
      </trkpt>
      <trkpt lat="45.16807" lon="5.58651">
        <ele>1536.8</ele>
        <time>2021-03-08T11:32:11Z</time>
      </trkpt>
      <trkpt lat="45.16825" lon="5.58652">
        <ele>1539.69</ele>
        <time>2021-03-08T11:32:37Z</time>
      </trkpt>
      <trkpt lat="45.16849" lon="5.58651">
        <ele>1541.61</ele>
        <time>2021-03-08T11:33:05Z</time>
      </trkpt>
      <trkpt lat="45.16867" lon="5.58652">
        <ele>1544.01</ele>
        <time>2021-03-08T11:33:28Z</time>
      </trkpt>
      <trkpt lat="45.16884" lon="5.58648">
        <ele>1545.46</ele>
        <time>2021-03-08T11:33:47Z</time>
      </trkpt>
      <trkpt lat="45.16892" lon="5.58645">
        <ele>1546.42</ele>
        <time>2021-03-08T11:34:02Z</time>
      </trkpt>
      <trkpt lat="45.169" lon="5.58645">
        <ele>1547.38</ele>
        <time>2021-03-08T11:34:16Z</time>
      </trkpt>
      <trkpt lat="45.16906" lon="5.58656">
        <ele>1549.3</ele>
        <time>2021-03-08T11:34:35Z</time>
      </trkpt>
      <trkpt lat="45.16914" lon="5.5866">
        <ele>1551.22</ele>
        <time>2021-03-08T11:34:55Z</time>
      </trkpt>
      <trkpt lat="45.16922" lon="5.5866">
        <ele>1552.19</ele>
        <time>2021-03-08T11:35:09Z</time>
      </trkpt>
      <trkpt lat="45.16936" lon="5.58662">
        <ele>1553.63</ele>
        <time>2021-03-08T11:35:28Z</time>
      </trkpt>
      <trkpt lat="45.16951" lon="5.58664">
        <ele>1555.07</ele>
        <time>2021-03-08T11:35:48Z</time>
      </trkpt>
      <trkpt lat="45.16963" lon="5.58658">
        <ele>1557.47</ele>
        <time>2021-03-08T11:36:09Z</time>
      </trkpt>
      <trkpt lat="45.16972" lon="5.58654">
        <ele>1560.84</ele>
        <time>2021-03-08T11:36:26Z</time>
      </trkpt>
      <trkpt lat="45.16985" lon="5.58652">
        <ele>1563.24</ele>
        <time>2021-03-08T11:36:51Z</time>
      </trkpt>
      <trkpt lat="45.16996" lon="5.58651">
        <ele>1566.12</ele>
        <time>2021-03-08T11:37:10Z</time>
      </trkpt>
      <trkpt lat="45.1701" lon="5.58654">
        <ele>1568.53</ele>
        <time>2021-03-08T11:37:31Z</time>
      </trkpt>
      <trkpt lat="45.17025" lon="5.58658">
        <ele>1569.49</ele>
        <time>2021-03-08T11:37:48Z</time>
      </trkpt>
      <trkpt lat="45.17039" lon="5.58654">
        <ele>1569.97</ele>
        <time>2021-03-08T11:38:05Z</time>
      </trkpt>
      <trkpt lat="45.17045" lon="5.58652">
        <ele>1569.97</ele>
        <time>2021-03-08T11:38:12Z</time>
      </trkpt>
      <trkpt lat="45.17062" lon="5.58645">
        <ele>1569.97</ele>
        <time>2021-03-08T11:38:31Z</time>
      </trkpt>
      <trkpt lat="45.17077" lon="5.5864">
        <ele>1570.93</ele>
        <time>2021-03-08T11:38:49Z</time>
      </trkpt>
      <trkpt lat="45.17093" lon="5.58636">
        <ele>1573.33</ele>
        <time>2021-03-08T11:39:11Z</time>
      </trkpt>
      <trkpt lat="45.17107" lon="5.58626">
        <ele>1573.82</ele>
        <time>2021-03-08T11:39:28Z</time>
      </trkpt>
      <trkpt lat="45.17122" lon="5.58613">
        <ele>1573.82</ele>
        <time>2021-03-08T11:39:47Z</time>
      </trkpt>
      <trkpt lat="45.17137" lon="5.58601">
        <ele>1574.78</ele>
        <time>2021-03-08T11:40:06Z</time>
      </trkpt>
      <trkpt lat="45.17156" lon="5.58595">
        <ele>1575.26</ele>
        <time>2021-03-08T11:40:27Z</time>
      </trkpt>
      <trkpt lat="45.17168" lon="5.58586">
        <ele>1576.22</ele>
        <time>2021-03-08T11:40:44Z</time>
      </trkpt>
      <trkpt lat="45.17178" lon="5.58577">
        <ele>1578.62</ele>
        <time>2021-03-08T11:41:01Z</time>
      </trkpt>
      <trkpt lat="45.17191" lon="5.58562">
        <ele>1580.54</ele>
        <time>2021-03-08T11:41:23Z</time>
      </trkpt>
      <trkpt lat="45.17199" lon="5.58549">
        <ele>1582.47</ele>
        <time>2021-03-08T11:41:40Z</time>
      </trkpt>
      <trkpt lat="45.17202" lon="5.58531">
        <ele>1584.39</ele>
        <time>2021-03-08T11:42:00Z</time>
      </trkpt>
      <trkpt lat="45.17203" lon="5.58516">
        <ele>1587.27</ele>
        <time>2021-03-08T11:42:20Z</time>
      </trkpt>
      <trkpt lat="45.17204" lon="5.58504">
        <ele>1590.16</ele>
        <time>2021-03-08T11:42:37Z</time>
      </trkpt>
      <trkpt lat="45.17203" lon="5.58492">
        <ele>1592.56</ele>
        <time>2021-03-08T11:42:56Z</time>
      </trkpt>
      <trkpt lat="45.17199" lon="5.58481">
        <ele>1595.45</ele>
        <time>2021-03-08T11:43:15Z</time>
      </trkpt>
      <trkpt lat="45.17193" lon="5.58471">
        <ele>1598.81</ele>
        <time>2021-03-08T11:43:36Z</time>
      </trkpt>
      <trkpt lat="45.17189" lon="5.58465">
        <ele>1601.21</ele>
        <time>2021-03-08T11:43:50Z</time>
      </trkpt>
      <trkpt lat="45.17184" lon="5.58457">
        <ele>1603.62</ele>
        <time>2021-03-08T11:44:05Z</time>
      </trkpt>
      <trkpt lat="45.17179" lon="5.58451">
        <ele>1606.02</ele>
        <time>2021-03-08T11:44:21Z</time>
      </trkpt>
      <trkpt lat="45.17172" lon="5.58446">
        <ele>1609.38</ele>
        <time>2021-03-08T11:44:39Z</time>
      </trkpt>
      <trkpt lat="45.17168" lon="5.58445">
        <ele>1610.35</ele>
        <time>2021-03-08T11:44:46Z</time>
      </trkpt>
      <trkpt lat="45.17164" lon="5.58439">
        <ele>1612.27</ele>
        <time>2021-03-08T11:44:59Z</time>
      </trkpt>
      <trkpt lat="45.17158" lon="5.58431">
        <ele>1615.63</ele>
        <time>2021-03-08T11:45:17Z</time>
      </trkpt>
      <trkpt lat="45.17157" lon="5.5843">
        <ele>1616.11</ele>
        <time>2021-03-08T11:45:20Z</time>
      </trkpt>
      <trkpt lat="45.17152" lon="5.58429">
        <ele>1616.59</ele>
        <time>2021-03-08T11:45:26Z</time>
      </trkpt>
      <trkpt lat="45.17145" lon="5.58425">
        <ele>1619</ele>
        <time>2021-03-08T11:45:41Z</time>
      </trkpt>
      <trkpt lat="45.17133" lon="5.58413">
        <ele>1621.88</ele>
        <time>2021-03-08T11:46:00Z</time>
      </trkpt>
      <trkpt lat="45.17123" lon="5.58402">
        <ele>1624.77</ele>
        <time>2021-03-08T11:46:18Z</time>
      </trkpt>
      <trkpt lat="45.17113" lon="5.58393">
        <ele>1627.65</ele>
        <time>2021-03-08T11:46:37Z</time>
      </trkpt>
      <trkpt lat="45.17106" lon="5.58386">
        <ele>1631.01</ele>
        <time>2021-03-08T11:46:55Z</time>
      </trkpt>
      <trkpt lat="45.17099" lon="5.58379">
        <ele>1633.42</ele>
        <time>2021-03-08T11:47:14Z</time>
      </trkpt>
      <trkpt lat="45.17098" lon="5.58376">
        <ele>1635.82</ele>
        <time>2021-03-08T11:47:29Z</time>
      </trkpt>
      <trkpt lat="45.17102" lon="5.58368">
        <ele>1636.78</ele>
        <time>2021-03-08T11:47:46Z</time>
      </trkpt>
      <trkpt lat="45.17102" lon="5.58366">
        <ele>1635.82</ele>
        <time>2021-03-08T11:48:04Z</time>
      </trkpt>
      <trkpt lat="45.17103" lon="5.58365">
        <ele>1635.82</ele>
        <time>2021-03-08T11:48:44Z</time>
      </trkpt>
      <trkpt lat="45.17103" lon="5.58365">
        <ele>1634.86</ele>
        <time>2021-03-08T11:48:59Z</time>
      </trkpt>
      <trkpt lat="45.17103" lon="5.58365">
        <ele>1634.38</ele>
        <time>2021-03-08T11:49:17Z</time>
      </trkpt>
      <trkpt lat="45.17103" lon="5.58364">
        <ele>1631.49</ele>
        <time>2021-03-08T11:49:22Z</time>
      </trkpt>
      <trkpt lat="45.17103" lon="5.58364">
        <ele>1631.01</ele>
        <time>2021-03-08T11:49:24Z</time>
      </trkpt>
      <trkpt lat="45.17103" lon="5.58364">
        <ele>1634.38</ele>
        <time>2021-03-08T11:49:34Z</time>
      </trkpt>
      <trkpt lat="45.17103" lon="5.58363">
        <ele>1637.26</ele>
        <time>2021-03-08T11:49:36Z</time>
      </trkpt>
      <trkpt lat="45.17103" lon="5.58364">
        <ele>1634.86</ele>
        <time>2021-03-08T11:49:38Z</time>
      </trkpt>
      <trkpt lat="45.17104" lon="5.58365">
        <ele>1634.86</ele>
        <time>2021-03-08T11:50:11Z</time>
      </trkpt>
      <trkpt lat="45.17104" lon="5.58364">
        <ele>1634.86</ele>
        <time>2021-03-08T11:50:49Z</time>
      </trkpt>
      <trkpt lat="45.17102" lon="5.58368">
        <ele>1634.86</ele>
        <time>2021-03-08T11:51:32Z</time>
      </trkpt>
      <trkpt lat="45.17102" lon="5.58368">
        <ele>1631.49</ele>
        <time>2021-03-08T11:51:39Z</time>
      </trkpt>
      <trkpt lat="45.17102" lon="5.58368">
        <ele>1632.94</ele>
        <time>2021-03-08T11:51:40Z</time>
      </trkpt>
      <trkpt lat="45.17102" lon="5.58369">
        <ele>1635.82</ele>
        <time>2021-03-08T11:51:43Z</time>
      </trkpt>
      <trkpt lat="45.17101" lon="5.5837">
        <ele>1635.82</ele>
        <time>2021-03-08T11:51:44Z</time>
      </trkpt>
      <trkpt lat="45.17102" lon="5.58368">
        <ele>1632.94</ele>
        <time>2021-03-08T11:52:16Z</time>
      </trkpt>
      <trkpt lat="45.17104" lon="5.58366">
        <ele>1634.38</ele>
        <time>2021-03-08T11:52:40Z</time>
      </trkpt>
      <trkpt lat="45.17105" lon="5.58363">
        <ele>1631.01</ele>
        <time>2021-03-08T11:53:04Z</time>
      </trkpt>
      <trkpt lat="45.17105" lon="5.58363">
        <ele>1631.01</ele>
        <time>2021-03-08T11:53:05Z</time>
      </trkpt>
      <trkpt lat="45.17104" lon="5.58365">
        <ele>1633.9</ele>
        <time>2021-03-08T11:53:09Z</time>
      </trkpt>
      <trkpt lat="45.17105" lon="5.58361">
        <ele>1632.94</ele>
        <time>2021-03-08T11:53:55Z</time>
      </trkpt>
      <trkpt lat="45.17112" lon="5.58364">
        <ele>1632.94</ele>
        <time>2021-03-08T11:54:13Z</time>
      </trkpt>
      <trkpt lat="45.17106" lon="5.58369">
        <ele>1631.01</ele>
        <time>2021-03-08T11:54:47Z</time>
      </trkpt>
      <trkpt lat="45.17106" lon="5.58369">
        <ele>1634.38</ele>
        <time>2021-03-08T11:54:53Z</time>
      </trkpt>
      <trkpt lat="45.17106" lon="5.58369">
        <ele>1634.86</ele>
        <time>2021-03-08T11:54:55Z</time>
      </trkpt>
      <trkpt lat="45.17105" lon="5.58367">
        <ele>1635.82</ele>
        <time>2021-03-08T11:55:31Z</time>
      </trkpt>
      <trkpt lat="45.17107" lon="5.58365">
        <ele>1631.98</ele>
        <time>2021-03-08T11:55:52Z</time>
      </trkpt>
      <trkpt lat="45.17108" lon="5.58363">
        <ele>1629.09</ele>
        <time>2021-03-08T11:55:56Z</time>
      </trkpt>
      <trkpt lat="45.17107" lon="5.58363">
        <ele>1631.98</ele>
        <time>2021-03-08T11:56:03Z</time>
      </trkpt>
      <trkpt lat="45.17108" lon="5.58363">
        <ele>1629.09</ele>
        <time>2021-03-08T11:56:30Z</time>
      </trkpt>
      <trkpt lat="45.17108" lon="5.58363">
        <ele>1632.46</ele>
        <time>2021-03-08T11:56:35Z</time>
      </trkpt>
      <trkpt lat="45.17105" lon="5.58361">
        <ele>1635.82</ele>
        <time>2021-03-08T11:56:53Z</time>
      </trkpt>
      <trkpt lat="45.17106" lon="5.58361">
        <ele>1639.67</ele>
        <time>2021-03-08T11:57:02Z</time>
      </trkpt>
      <trkpt lat="45.17106" lon="5.58361">
        <ele>1640.63</ele>
        <time>2021-03-08T11:57:04Z</time>
      </trkpt>
      <trkpt lat="45.17106" lon="5.58361">
        <ele>1635.82</ele>
        <time>2021-03-08T11:57:09Z</time>
      </trkpt>
      <trkpt lat="45.17106" lon="5.58361">
        <ele>1632.46</ele>
        <time>2021-03-08T11:57:11Z</time>
      </trkpt>
      <trkpt lat="45.17105" lon="5.58362">
        <ele>1637.74</ele>
        <time>2021-03-08T11:57:16Z</time>
      </trkpt>
      <trkpt lat="45.17104" lon="5.58363">
        <ele>1634.38</ele>
        <time>2021-03-08T11:57:20Z</time>
      </trkpt>
      <trkpt lat="45.17103" lon="5.58363">
        <ele>1630.53</ele>
        <time>2021-03-08T11:57:22Z</time>
      </trkpt>
      <trkpt lat="45.17103" lon="5.58363">
        <ele>1633.42</ele>
        <time>2021-03-08T11:57:27Z</time>
      </trkpt>
      <trkpt lat="45.17103" lon="5.58364">
        <ele>1635.34</ele>
        <time>2021-03-08T11:57:30Z</time>
      </trkpt>
      <trkpt lat="45.17103" lon="5.58364">
        <ele>1638.7</ele>
        <time>2021-03-08T11:57:38Z</time>
      </trkpt>
      <trkpt lat="45.17103" lon="5.58365">
        <ele>1639.67</ele>
        <time>2021-03-08T11:57:40Z</time>
      </trkpt>
      <trkpt lat="45.17103" lon="5.58365">
        <ele>1636.3</ele>
        <time>2021-03-08T11:57:44Z</time>
      </trkpt>
      <trkpt lat="45.17104" lon="5.58366">
        <ele>1632.46</ele>
        <time>2021-03-08T11:57:46Z</time>
      </trkpt>
      <trkpt lat="45.17104" lon="5.58366">
        <ele>1636.78</ele>
        <time>2021-03-08T11:57:51Z</time>
      </trkpt>
      <trkpt lat="45.17104" lon="5.58366">
        <ele>1638.7</ele>
        <time>2021-03-08T11:57:54Z</time>
      </trkpt>
      <trkpt lat="45.17104" lon="5.58366">
        <ele>1634.86</ele>
        <time>2021-03-08T11:57:58Z</time>
      </trkpt>
      <trkpt lat="45.17104" lon="5.58366">
        <ele>1633.42</ele>
        <time>2021-03-08T11:58:01Z</time>
      </trkpt>
      <trkpt lat="45.17104" lon="5.58367">
        <ele>1634.38</ele>
        <time>2021-03-08T11:58:04Z</time>
      </trkpt>
      <trkpt lat="45.17104" lon="5.58367">
        <ele>1631.49</ele>
        <time>2021-03-08T11:58:10Z</time>
      </trkpt>
      <trkpt lat="45.17102" lon="5.58366">
        <ele>1634.38</ele>
        <time>2021-03-08T11:58:21Z</time>
      </trkpt>
      <trkpt lat="45.17102" lon="5.58366">
        <ele>1633.42</ele>
        <time>2021-03-08T11:58:31Z</time>
      </trkpt>
      <trkpt lat="45.17104" lon="5.58365">
        <ele>1633.42</ele>
        <time>2021-03-08T11:59:15Z</time>
      </trkpt>
      <trkpt lat="45.17105" lon="5.58364">
        <ele>1633.42</ele>
        <time>2021-03-08T11:59:58Z</time>
      </trkpt>
      <trkpt lat="45.17106" lon="5.58364">
        <ele>1633.42</ele>
        <time>2021-03-08T12:00:48Z</time>
      </trkpt>
      <trkpt lat="45.17107" lon="5.58363">
        <ele>1633.42</ele>
        <time>2021-03-08T12:01:34Z</time>
      </trkpt>
      <trkpt lat="45.17103" lon="5.58369">
        <ele>1633.42</ele>
        <time>2021-03-08T12:02:23Z</time>
      </trkpt>
      <trkpt lat="45.17105" lon="5.58369">
        <ele>1636.78</ele>
        <time>2021-03-08T12:02:34Z</time>
      </trkpt>
      <trkpt lat="45.17106" lon="5.58369">
        <ele>1636.78</ele>
        <time>2021-03-08T12:02:35Z</time>
      </trkpt>
      <trkpt lat="45.17106" lon="5.58368">
        <ele>1634.86</ele>
        <time>2021-03-08T12:02:39Z</time>
      </trkpt>
      <trkpt lat="45.17111" lon="5.58367">
        <ele>1636.78</ele>
        <time>2021-03-08T12:03:21Z</time>
      </trkpt>
      <trkpt lat="45.17109" lon="5.58363">
        <ele>1635.82</ele>
        <time>2021-03-08T12:04:04Z</time>
      </trkpt>
      <trkpt lat="45.17113" lon="5.58369">
        <ele>1636.3</ele>
        <time>2021-03-08T12:04:45Z</time>
      </trkpt>
      <trkpt lat="45.17115" lon="5.58371">
        <ele>1636.3</ele>
        <time>2021-03-08T12:05:35Z</time>
      </trkpt>
      <trkpt lat="45.17115" lon="5.58371">
        <ele>1632.94</ele>
        <time>2021-03-08T12:05:38Z</time>
      </trkpt>
      <trkpt lat="45.17115" lon="5.5837">
        <ele>1633.9</ele>
        <time>2021-03-08T12:05:39Z</time>
      </trkpt>
      <trkpt lat="45.17116" lon="5.58372">
        <ele>1637.26</ele>
        <time>2021-03-08T12:05:51Z</time>
      </trkpt>
      <trkpt lat="45.17115" lon="5.58368">
        <ele>1635.82</ele>
        <time>2021-03-08T12:06:33Z</time>
      </trkpt>
      <trkpt lat="45.17116" lon="5.5837">
        <ele>1634.38</ele>
        <time>2021-03-08T12:06:54Z</time>
      </trkpt>
      <trkpt lat="45.17116" lon="5.58371">
        <ele>1637.74</ele>
        <time>2021-03-08T12:07:02Z</time>
      </trkpt>
      <trkpt lat="45.17116" lon="5.58371">
        <ele>1638.22</ele>
        <time>2021-03-08T12:07:03Z</time>
      </trkpt>
      <trkpt lat="45.17114" lon="5.58372">
        <ele>1634.86</ele>
        <time>2021-03-08T12:07:29Z</time>
      </trkpt>
      <trkpt lat="45.17113" lon="5.58367">
        <ele>1638.22</ele>
        <time>2021-03-08T12:08:00Z</time>
      </trkpt>
      <trkpt lat="45.17111" lon="5.58365">
        <ele>1637.74</ele>
        <time>2021-03-08T12:08:26Z</time>
      </trkpt>
      <trkpt lat="45.1711" lon="5.58365">
        <ele>1634.38</ele>
        <time>2021-03-08T12:08:39Z</time>
      </trkpt>
      <trkpt lat="45.17109" lon="5.58364">
        <ele>1637.74</ele>
        <time>2021-03-08T12:08:59Z</time>
      </trkpt>
      <trkpt lat="45.17109" lon="5.58366">
        <ele>1634.38</ele>
        <time>2021-03-08T12:09:11Z</time>
      </trkpt>
      <trkpt lat="45.17109" lon="5.58367">
        <ele>1636.3</ele>
        <time>2021-03-08T12:09:25Z</time>
      </trkpt>
      <trkpt lat="45.1711" lon="5.58368">
        <ele>1633.9</ele>
        <time>2021-03-08T12:09:31Z</time>
      </trkpt>
      <trkpt lat="45.17109" lon="5.58367">
        <ele>1636.3</ele>
        <time>2021-03-08T12:09:42Z</time>
      </trkpt>
      <trkpt lat="45.17109" lon="5.58367">
        <ele>1638.22</ele>
        <time>2021-03-08T12:09:47Z</time>
      </trkpt>
      <trkpt lat="45.17108" lon="5.58366">
        <ele>1635.34</ele>
        <time>2021-03-08T12:09:54Z</time>
      </trkpt>
      <trkpt lat="45.17108" lon="5.58366">
        <ele>1634.86</ele>
        <time>2021-03-08T12:09:55Z</time>
      </trkpt>
      <trkpt lat="45.17106" lon="5.58364">
        <ele>1639.19</ele>
        <time>2021-03-08T12:10:10Z</time>
      </trkpt>
      <trkpt lat="45.17106" lon="5.58363">
        <ele>1639.67</ele>
        <time>2021-03-08T12:10:12Z</time>
      </trkpt>
      <trkpt lat="45.17106" lon="5.58363">
        <ele>1635.82</ele>
        <time>2021-03-08T12:10:18Z</time>
      </trkpt>
      <trkpt lat="45.17106" lon="5.58363">
        <ele>1635.82</ele>
        <time>2021-03-08T12:10:19Z</time>
      </trkpt>
      <trkpt lat="45.17106" lon="5.58363">
        <ele>1636.78</ele>
        <time>2021-03-08T12:10:22Z</time>
      </trkpt>
      <trkpt lat="45.17106" lon="5.58364">
        <ele>1633.42</ele>
        <time>2021-03-08T12:10:29Z</time>
      </trkpt>
      <trkpt lat="45.17106" lon="5.58362">
        <ele>1636.3</ele>
        <time>2021-03-08T12:10:36Z</time>
      </trkpt>
      <trkpt lat="45.17106" lon="5.58362">
        <ele>1639.67</ele>
        <time>2021-03-08T12:10:39Z</time>
      </trkpt>
      <trkpt lat="45.17106" lon="5.58361">
        <ele>1636.3</ele>
        <time>2021-03-08T12:10:43Z</time>
      </trkpt>
      <trkpt lat="45.17105" lon="5.5836">
        <ele>1637.74</ele>
        <time>2021-03-08T12:10:59Z</time>
      </trkpt>
      <trkpt lat="45.17105" lon="5.5836">
        <ele>1635.34</ele>
        <time>2021-03-08T12:11:05Z</time>
      </trkpt>
      <trkpt lat="45.17104" lon="5.58363">
        <ele>1638.22</ele>
        <time>2021-03-08T12:11:26Z</time>
      </trkpt>
      <trkpt lat="45.17104" lon="5.58363">
        <ele>1639.19</ele>
        <time>2021-03-08T12:11:28Z</time>
      </trkpt>
      <trkpt lat="45.17106" lon="5.58366">
        <ele>1636.3</ele>
        <time>2021-03-08T12:12:00Z</time>
      </trkpt>
      <trkpt lat="45.17104" lon="5.58368">
        <ele>1636.78</ele>
        <time>2021-03-08T12:12:39Z</time>
      </trkpt>
      <trkpt lat="45.17104" lon="5.58367">
        <ele>1633.9</ele>
        <time>2021-03-08T12:12:49Z</time>
      </trkpt>
      <trkpt lat="45.17105" lon="5.58367">
        <ele>1637.26</ele>
        <time>2021-03-08T12:13:08Z</time>
      </trkpt>
      <trkpt lat="45.17105" lon="5.58368">
        <ele>1637.74</ele>
        <time>2021-03-08T12:13:09Z</time>
      </trkpt>
      <trkpt lat="45.17105" lon="5.58365">
        <ele>1636.78</ele>
        <time>2021-03-08T12:13:37Z</time>
      </trkpt>
      <trkpt lat="45.17104" lon="5.58365">
        <ele>1636.78</ele>
        <time>2021-03-08T12:14:04Z</time>
      </trkpt>
      <trkpt lat="45.17105" lon="5.58365">
        <ele>1634.86</ele>
        <time>2021-03-08T12:14:17Z</time>
      </trkpt>
      <trkpt lat="45.17105" lon="5.58365">
        <ele>1638.22</ele>
        <time>2021-03-08T12:14:31Z</time>
      </trkpt>
      <trkpt lat="45.17104" lon="5.58365">
        <ele>1637.74</ele>
        <time>2021-03-08T12:14:56Z</time>
      </trkpt>
      <trkpt lat="45.17102" lon="5.5837">
        <ele>1638.7</ele>
        <time>2021-03-08T12:15:17Z</time>
      </trkpt>
      <trkpt lat="45.17094" lon="5.58367">
        <ele>1639.67</ele>
        <time>2021-03-08T12:15:37Z</time>
      </trkpt>
      <trkpt lat="45.17082" lon="5.58364">
        <ele>1641.59</ele>
        <time>2021-03-08T12:15:57Z</time>
      </trkpt>
      <trkpt lat="45.17071" lon="5.58362">
        <ele>1644.47</ele>
        <time>2021-03-08T12:16:16Z</time>
      </trkpt>
      <trkpt lat="45.17059" lon="5.58358">
        <ele>1646.4</ele>
        <time>2021-03-08T12:16:37Z</time>
      </trkpt>
      <trkpt lat="45.17046" lon="5.58353">
        <ele>1648.8</ele>
        <time>2021-03-08T12:16:59Z</time>
      </trkpt>
      <trkpt lat="45.17035" lon="5.58352">
        <ele>1651.68</ele>
        <time>2021-03-08T12:17:18Z</time>
      </trkpt>
      <trkpt lat="45.17027" lon="5.58355">
        <ele>1654.57</ele>
        <time>2021-03-08T12:17:37Z</time>
      </trkpt>
      <trkpt lat="45.17018" lon="5.58359">
        <ele>1657.45</ele>
        <time>2021-03-08T12:17:57Z</time>
      </trkpt>
      <trkpt lat="45.17007" lon="5.58364">
        <ele>1660.81</ele>
        <time>2021-03-08T12:18:16Z</time>
      </trkpt>
      <trkpt lat="45.16996" lon="5.58366">
        <ele>1663.22</ele>
        <time>2021-03-08T12:18:35Z</time>
      </trkpt>
      <trkpt lat="45.16985" lon="5.58377">
        <ele>1666.58</ele>
        <time>2021-03-08T12:18:55Z</time>
      </trkpt>
      <trkpt lat="45.16973" lon="5.58382">
        <ele>1668.51</ele>
        <time>2021-03-08T12:19:14Z</time>
      </trkpt>
      <trkpt lat="45.16966" lon="5.58382">
        <ele>1668.99</ele>
        <time>2021-03-08T12:19:28Z</time>
      </trkpt>
      <trkpt lat="45.1695" lon="5.58378">
        <ele>1669.47</ele>
        <time>2021-03-08T12:19:48Z</time>
      </trkpt>
      <trkpt lat="45.16944" lon="5.58375">
        <ele>1668.99</ele>
        <time>2021-03-08T12:20:03Z</time>
      </trkpt>
      <trkpt lat="45.16944" lon="5.58376">
        <ele>1668.51</ele>
        <time>2021-03-08T12:20:31Z</time>
      </trkpt>
      <trkpt lat="45.16944" lon="5.58376">
        <ele>1668.51</ele>
        <time>2021-03-08T12:21:04Z</time>
      </trkpt>
      <trkpt lat="45.16942" lon="5.58374">
        <ele>1668.02</ele>
        <time>2021-03-08T12:21:38Z</time>
      </trkpt>
      <trkpt lat="45.16932" lon="5.58368">
        <ele>1668.02</ele>
        <time>2021-03-08T12:22:07Z</time>
      </trkpt>
      <trkpt lat="45.16923" lon="5.58364">
        <ele>1668.02</ele>
        <time>2021-03-08T12:22:17Z</time>
      </trkpt>
      <trkpt lat="45.16905" lon="5.58359">
        <ele>1666.58</ele>
        <time>2021-03-08T12:22:35Z</time>
      </trkpt>
      <trkpt lat="45.16893" lon="5.58355">
        <ele>1665.62</ele>
        <time>2021-03-08T12:22:54Z</time>
      </trkpt>
      <trkpt lat="45.16891" lon="5.58355">
        <ele>1665.62</ele>
        <time>2021-03-08T12:22:56Z</time>
      </trkpt>
      <trkpt lat="45.1689" lon="5.58355">
        <ele>1665.62</ele>
        <time>2021-03-08T12:22:57Z</time>
      </trkpt>
      <trkpt lat="45.16873" lon="5.58349">
        <ele>1664.66</ele>
        <time>2021-03-08T12:23:13Z</time>
      </trkpt>
      <trkpt lat="45.16872" lon="5.58348">
        <ele>1664.18</ele>
        <time>2021-03-08T12:23:14Z</time>
      </trkpt>
      <trkpt lat="45.16855" lon="5.58343">
        <ele>1662.74</ele>
        <time>2021-03-08T12:23:31Z</time>
      </trkpt>
      <trkpt lat="45.16835" lon="5.58337">
        <ele>1660.81</ele>
        <time>2021-03-08T12:23:49Z</time>
      </trkpt>
      <trkpt lat="45.16817" lon="5.58338">
        <ele>1659.37</ele>
        <time>2021-03-08T12:24:05Z</time>
      </trkpt>
      <trkpt lat="45.16796" lon="5.58333">
        <ele>1658.41</ele>
        <time>2021-03-08T12:24:23Z</time>
      </trkpt>
      <trkpt lat="45.16778" lon="5.58326">
        <ele>1656.01</ele>
        <time>2021-03-08T12:24:39Z</time>
      </trkpt>
      <trkpt lat="45.16773" lon="5.58325">
        <ele>1655.53</ele>
        <time>2021-03-08T12:24:43Z</time>
      </trkpt>
      <trkpt lat="45.16759" lon="5.58321">
        <ele>1654.09</ele>
        <time>2021-03-08T12:24:55Z</time>
      </trkpt>
      <trkpt lat="45.16758" lon="5.58321">
        <ele>1654.09</ele>
        <time>2021-03-08T12:24:56Z</time>
      </trkpt>
      <trkpt lat="45.16741" lon="5.58319">
        <ele>1652.64</ele>
        <time>2021-03-08T12:25:12Z</time>
      </trkpt>
      <trkpt lat="45.16731" lon="5.58319">
        <ele>1652.64</ele>
        <time>2021-03-08T12:25:24Z</time>
      </trkpt>
      <trkpt lat="45.1673" lon="5.58319">
        <ele>1652.64</ele>
        <time>2021-03-08T12:25:25Z</time>
      </trkpt>
      <trkpt lat="45.16721" lon="5.58317">
        <ele>1653.12</ele>
        <time>2021-03-08T12:25:33Z</time>
      </trkpt>
      <trkpt lat="45.1672" lon="5.58317">
        <ele>1653.12</ele>
        <time>2021-03-08T12:25:34Z</time>
      </trkpt>
      <trkpt lat="45.16717" lon="5.58316">
        <ele>1653.12</ele>
        <time>2021-03-08T12:25:37Z</time>
      </trkpt>
      <trkpt lat="45.16716" lon="5.58316">
        <ele>1653.12</ele>
        <time>2021-03-08T12:25:38Z</time>
      </trkpt>
      <trkpt lat="45.16698" lon="5.58312">
        <ele>1654.09</ele>
        <time>2021-03-08T12:25:57Z</time>
      </trkpt>
      <trkpt lat="45.16679" lon="5.58306">
        <ele>1655.53</ele>
        <time>2021-03-08T12:26:19Z</time>
      </trkpt>
      <trkpt lat="45.16666" lon="5.58303">
        <ele>1657.45</ele>
        <time>2021-03-08T12:26:37Z</time>
      </trkpt>
      <trkpt lat="45.16652" lon="5.58299">
        <ele>1658.89</ele>
        <time>2021-03-08T12:26:55Z</time>
      </trkpt>
      <trkpt lat="45.16643" lon="5.58298">
        <ele>1660.81</ele>
        <time>2021-03-08T12:27:05Z</time>
      </trkpt>
      <trkpt lat="45.16626" lon="5.58293">
        <ele>1662.26</ele>
        <time>2021-03-08T12:27:26Z</time>
      </trkpt>
      <trkpt lat="45.16623" lon="5.58292">
        <ele>1662.74</ele>
        <time>2021-03-08T12:27:29Z</time>
      </trkpt>
      <trkpt lat="45.16606" lon="5.58288">
        <ele>1663.22</ele>
        <time>2021-03-08T12:27:47Z</time>
      </trkpt>
      <trkpt lat="45.1659" lon="5.58282">
        <ele>1663.7</ele>
        <time>2021-03-08T12:28:04Z</time>
      </trkpt>
      <trkpt lat="45.16574" lon="5.58277">
        <ele>1664.18</ele>
        <time>2021-03-08T12:28:21Z</time>
      </trkpt>
      <trkpt lat="45.16559" lon="5.58269">
        <ele>1663.7</ele>
        <time>2021-03-08T12:28:38Z</time>
      </trkpt>
      <trkpt lat="45.16542" lon="5.58263">
        <ele>1662.74</ele>
        <time>2021-03-08T12:28:55Z</time>
      </trkpt>
      <trkpt lat="45.16524" lon="5.58256">
        <ele>1661.78</ele>
        <time>2021-03-08T12:29:11Z</time>
      </trkpt>
      <trkpt lat="45.16503" lon="5.58251">
        <ele>1660.81</ele>
        <time>2021-03-08T12:29:30Z</time>
      </trkpt>
      <trkpt lat="45.1648" lon="5.58239">
        <ele>1659.85</ele>
        <time>2021-03-08T12:29:50Z</time>
      </trkpt>
      <trkpt lat="45.16461" lon="5.58228">
        <ele>1658.89</ele>
        <time>2021-03-08T12:30:10Z</time>
      </trkpt>
      <trkpt lat="45.16455" lon="5.58222">
        <ele>1657.93</ele>
        <time>2021-03-08T12:30:16Z</time>
      </trkpt>
      <trkpt lat="45.16454" lon="5.58222">
        <ele>1657.93</ele>
        <time>2021-03-08T12:30:17Z</time>
      </trkpt>
      <trkpt lat="45.16452" lon="5.58221">
        <ele>1657.93</ele>
        <time>2021-03-08T12:30:19Z</time>
      </trkpt>
      <trkpt lat="45.16442" lon="5.58209">
        <ele>1657.45</ele>
        <time>2021-03-08T12:30:32Z</time>
      </trkpt>
      <trkpt lat="45.16429" lon="5.58193">
        <ele>1657.45</ele>
        <time>2021-03-08T12:30:48Z</time>
      </trkpt>
      <trkpt lat="45.16419" lon="5.58181">
        <ele>1656.97</ele>
        <time>2021-03-08T12:30:59Z</time>
      </trkpt>
      <trkpt lat="45.16402" lon="5.58157">
        <ele>1656.97</ele>
        <time>2021-03-08T12:31:20Z</time>
      </trkpt>
      <trkpt lat="45.16384" lon="5.58138">
        <ele>1656.49</ele>
        <time>2021-03-08T12:31:40Z</time>
      </trkpt>
      <trkpt lat="45.16371" lon="5.58124">
        <ele>1657.93</ele>
        <time>2021-03-08T12:31:59Z</time>
      </trkpt>
      <trkpt lat="45.16358" lon="5.58108">
        <ele>1659.85</ele>
        <time>2021-03-08T12:32:17Z</time>
      </trkpt>
      <trkpt lat="45.16345" lon="5.58092">
        <ele>1661.78</ele>
        <time>2021-03-08T12:32:38Z</time>
      </trkpt>
      <trkpt lat="45.16343" lon="5.58091">
        <ele>1661.78</ele>
        <time>2021-03-08T12:32:40Z</time>
      </trkpt>
      <trkpt lat="45.16327" lon="5.58084">
        <ele>1661.78</ele>
        <time>2021-03-08T12:32:59Z</time>
      </trkpt>
      <trkpt lat="45.16316" lon="5.58069">
        <ele>1661.3</ele>
        <time>2021-03-08T12:33:15Z</time>
      </trkpt>
      <trkpt lat="45.16304" lon="5.58058">
        <ele>1661.78</ele>
        <time>2021-03-08T12:33:35Z</time>
      </trkpt>
      <trkpt lat="45.16292" lon="5.58065">
        <ele>1660.81</ele>
        <time>2021-03-08T12:33:53Z</time>
      </trkpt>
      <trkpt lat="45.16274" lon="5.5807">
        <ele>1659.37</ele>
        <time>2021-03-08T12:34:15Z</time>
      </trkpt>
      <trkpt lat="45.16248" lon="5.58065">
        <ele>1658.41</ele>
        <time>2021-03-08T12:34:39Z</time>
      </trkpt>
      <trkpt lat="45.16216" lon="5.58056">
        <ele>1657.45</ele>
        <time>2021-03-08T12:35:10Z</time>
      </trkpt>
      <trkpt lat="45.1619" lon="5.58049">
        <ele>1656.49</ele>
        <time>2021-03-08T12:35:32Z</time>
      </trkpt>
      <trkpt lat="45.16175" lon="5.58044">
        <ele>1656.01</ele>
        <time>2021-03-08T12:35:49Z</time>
      </trkpt>
      <trkpt lat="45.16142" lon="5.58039">
        <ele>1654.57</ele>
        <time>2021-03-08T12:36:19Z</time>
      </trkpt>
      <trkpt lat="45.16122" lon="5.58044">
        <ele>1653.12</ele>
        <time>2021-03-08T12:36:39Z</time>
      </trkpt>
      <trkpt lat="45.16104" lon="5.58048">
        <ele>1651.2</ele>
        <time>2021-03-08T12:36:55Z</time>
      </trkpt>
      <trkpt lat="45.16094" lon="5.58045">
        <ele>1650.24</ele>
        <time>2021-03-08T12:37:04Z</time>
      </trkpt>
      <trkpt lat="45.16066" lon="5.58038">
        <ele>1648.8</ele>
        <time>2021-03-08T12:37:26Z</time>
      </trkpt>
      <trkpt lat="45.16043" lon="5.58034">
        <ele>1647.36</ele>
        <time>2021-03-08T12:37:46Z</time>
      </trkpt>
      <trkpt lat="45.16021" lon="5.58028">
        <ele>1645.91</ele>
        <time>2021-03-08T12:38:06Z</time>
      </trkpt>
      <trkpt lat="45.16009" lon="5.58026">
        <ele>1645.43</ele>
        <time>2021-03-08T12:38:18Z</time>
      </trkpt>
      <trkpt lat="45.16008" lon="5.58026">
        <ele>1645.43</ele>
        <time>2021-03-08T12:38:19Z</time>
      </trkpt>
      <trkpt lat="45.16005" lon="5.58026">
        <ele>1645.91</ele>
        <time>2021-03-08T12:38:22Z</time>
      </trkpt>
      <trkpt lat="45.1599" lon="5.5802">
        <ele>1645.43</ele>
        <time>2021-03-08T12:38:39Z</time>
      </trkpt>
      <trkpt lat="45.15963" lon="5.58004">
        <ele>1647.36</ele>
        <time>2021-03-08T12:39:05Z</time>
      </trkpt>
      <trkpt lat="45.15939" lon="5.57993">
        <ele>1647.84</ele>
        <time>2021-03-08T12:39:27Z</time>
      </trkpt>
      <trkpt lat="45.15931" lon="5.57987">
        <ele>1646.88</ele>
        <time>2021-03-08T12:39:36Z</time>
      </trkpt>
      <trkpt lat="45.1593" lon="5.57985">
        <ele>1646.4</ele>
        <time>2021-03-08T12:39:37Z</time>
      </trkpt>
      <trkpt lat="45.15929" lon="5.57984">
        <ele>1646.4</ele>
        <time>2021-03-08T12:39:38Z</time>
      </trkpt>
      <trkpt lat="45.15928" lon="5.57983">
        <ele>1646.4</ele>
        <time>2021-03-08T12:39:39Z</time>
      </trkpt>
      <trkpt lat="45.15928" lon="5.57981">
        <ele>1646.4</ele>
        <time>2021-03-08T12:39:40Z</time>
      </trkpt>
      <trkpt lat="45.15927" lon="5.5798">
        <ele>1646.4</ele>
        <time>2021-03-08T12:39:41Z</time>
      </trkpt>
      <trkpt lat="45.15926" lon="5.57978">
        <ele>1646.4</ele>
        <time>2021-03-08T12:39:42Z</time>
      </trkpt>
      <trkpt lat="45.1591" lon="5.57953">
        <ele>1644.95</ele>
        <time>2021-03-08T12:40:03Z</time>
      </trkpt>
      <trkpt lat="45.15896" lon="5.57938">
        <ele>1643.03</ele>
        <time>2021-03-08T12:40:19Z</time>
      </trkpt>
      <trkpt lat="45.15867" lon="5.57917">
        <ele>1642.55</ele>
        <time>2021-03-08T12:40:44Z</time>
      </trkpt>
      <trkpt lat="45.15843" lon="5.57904">
        <ele>1643.03</ele>
        <time>2021-03-08T12:41:08Z</time>
      </trkpt>
      <trkpt lat="45.15824" lon="5.57899">
        <ele>1643.51</ele>
        <time>2021-03-08T12:41:27Z</time>
      </trkpt>
      <trkpt lat="45.15804" lon="5.5789">
        <ele>1642.07</ele>
        <time>2021-03-08T12:41:47Z</time>
      </trkpt>
      <trkpt lat="45.15799" lon="5.57895">
        <ele>1641.59</ele>
        <time>2021-03-08T12:41:54Z</time>
      </trkpt>
      <trkpt lat="45.15797" lon="5.57896">
        <ele>1641.59</ele>
        <time>2021-03-08T12:41:55Z</time>
      </trkpt>
      <trkpt lat="45.15793" lon="5.57899">
        <ele>1641.59</ele>
        <time>2021-03-08T12:42:00Z</time>
      </trkpt>
      <trkpt lat="45.15783" lon="5.57906">
        <ele>1639.19</ele>
        <time>2021-03-08T12:42:17Z</time>
      </trkpt>
      <trkpt lat="45.15771" lon="5.57914">
        <ele>1637.74</ele>
        <time>2021-03-08T12:42:34Z</time>
      </trkpt>
      <trkpt lat="45.15758" lon="5.57917">
        <ele>1635.34</ele>
        <time>2021-03-08T12:42:51Z</time>
      </trkpt>
      <trkpt lat="45.15743" lon="5.57918">
        <ele>1631.98</ele>
        <time>2021-03-08T12:43:08Z</time>
      </trkpt>
      <trkpt lat="45.1573" lon="5.5792">
        <ele>1630.05</ele>
        <time>2021-03-08T12:43:21Z</time>
      </trkpt>
      <trkpt lat="45.1571" lon="5.57917">
        <ele>1627.17</ele>
        <time>2021-03-08T12:43:45Z</time>
      </trkpt>
      <trkpt lat="45.15684" lon="5.57922">
        <ele>1626.69</ele>
        <time>2021-03-08T12:44:13Z</time>
      </trkpt>
      <trkpt lat="45.1567" lon="5.57922">
        <ele>1626.21</ele>
        <time>2021-03-08T12:44:28Z</time>
      </trkpt>
      <trkpt lat="45.15653" lon="5.57911">
        <ele>1626.69</ele>
        <time>2021-03-08T12:44:48Z</time>
      </trkpt>
      <trkpt lat="45.15636" lon="5.57904">
        <ele>1627.17</ele>
        <time>2021-03-08T12:45:10Z</time>
      </trkpt>
      <trkpt lat="45.15635" lon="5.57903">
        <ele>1627.17</ele>
        <time>2021-03-08T12:45:11Z</time>
      </trkpt>
      <trkpt lat="45.15619" lon="5.57899">
        <ele>1626.21</ele>
        <time>2021-03-08T12:45:29Z</time>
      </trkpt>
      <trkpt lat="45.15605" lon="5.57896">
        <ele>1622.84</ele>
        <time>2021-03-08T12:45:49Z</time>
      </trkpt>
      <trkpt lat="45.1559" lon="5.57881">
        <ele>1621.88</ele>
        <time>2021-03-08T12:46:11Z</time>
      </trkpt>
      <trkpt lat="45.15571" lon="5.57872">
        <ele>1622.36</ele>
        <time>2021-03-08T12:46:37Z</time>
      </trkpt>
      <trkpt lat="45.1557" lon="5.57875">
        <ele>1622.36</ele>
        <time>2021-03-08T12:47:10Z</time>
      </trkpt>
      <trkpt lat="45.15573" lon="5.57874">
        <ele>1621.88</ele>
        <time>2021-03-08T12:47:54Z</time>
      </trkpt>
      <trkpt lat="45.15574" lon="5.57873">
        <ele>1621.88</ele>
        <time>2021-03-08T12:48:37Z</time>
      </trkpt>
      <trkpt lat="45.15571" lon="5.57871">
        <ele>1621.88</ele>
        <time>2021-03-08T12:48:59Z</time>
      </trkpt>
      <trkpt lat="45.15574" lon="5.5787">
        <ele>1622.36</ele>
        <time>2021-03-08T12:49:41Z</time>
      </trkpt>
      <trkpt lat="45.15571" lon="5.57869">
        <ele>1622.84</ele>
        <time>2021-03-08T12:50:21Z</time>
      </trkpt>
      <trkpt lat="45.15571" lon="5.57868">
        <ele>1622.84</ele>
        <time>2021-03-08T12:51:06Z</time>
      </trkpt>
      <trkpt lat="45.15571" lon="5.57854">
        <ele>1622.84</ele>
        <time>2021-03-08T12:51:31Z</time>
      </trkpt>
      <trkpt lat="45.15571" lon="5.57828">
        <ele>1622.84</ele>
        <time>2021-03-08T12:51:56Z</time>
      </trkpt>
      <trkpt lat="45.15567" lon="5.57796">
        <ele>1622.84</ele>
        <time>2021-03-08T12:52:24Z</time>
      </trkpt>
      <trkpt lat="45.15561" lon="5.57779">
        <ele>1619.96</ele>
        <time>2021-03-08T12:52:42Z</time>
      </trkpt>
      <trkpt lat="45.15561" lon="5.57777">
        <ele>1616.59</ele>
        <time>2021-03-08T12:52:44Z</time>
      </trkpt>
      <trkpt lat="45.15554" lon="5.57757">
        <ele>1613.71</ele>
        <time>2021-03-08T12:53:03Z</time>
      </trkpt>
      <trkpt lat="45.15545" lon="5.57728">
        <ele>1611.79</ele>
        <time>2021-03-08T12:53:29Z</time>
      </trkpt>
      <trkpt lat="45.15533" lon="5.57698">
        <ele>1608.42</ele>
        <time>2021-03-08T12:53:55Z</time>
      </trkpt>
      <trkpt lat="45.15511" lon="5.57676">
        <ele>1605.54</ele>
        <time>2021-03-08T12:54:24Z</time>
      </trkpt>
      <trkpt lat="45.15481" lon="5.57663">
        <ele>1605.06</ele>
        <time>2021-03-08T12:54:55Z</time>
      </trkpt>
      <trkpt lat="45.15455" lon="5.57658">
        <ele>1604.58</ele>
        <time>2021-03-08T12:55:21Z</time>
      </trkpt>
      <trkpt lat="45.15439" lon="5.57656">
        <ele>1604.1</ele>
        <time>2021-03-08T12:55:36Z</time>
      </trkpt>
      <trkpt lat="45.15414" lon="5.57645">
        <ele>1602.17</ele>
        <time>2021-03-08T12:55:59Z</time>
      </trkpt>
      <trkpt lat="45.15384" lon="5.57631">
        <ele>1599.77</ele>
        <time>2021-03-08T12:56:26Z</time>
      </trkpt>
      <trkpt lat="45.15363" lon="5.57622">
        <ele>1596.41</ele>
        <time>2021-03-08T12:56:44Z</time>
      </trkpt>
      <trkpt lat="45.15348" lon="5.57608">
        <ele>1593.52</ele>
        <time>2021-03-08T12:57:06Z</time>
      </trkpt>
      <trkpt lat="45.15331" lon="5.57589">
        <ele>1590.64</ele>
        <time>2021-03-08T12:57:29Z</time>
      </trkpt>
      <trkpt lat="45.15308" lon="5.57571">
        <ele>1587.75</ele>
        <time>2021-03-08T12:57:52Z</time>
      </trkpt>
      <trkpt lat="45.15298" lon="5.5756">
        <ele>1584.39</ele>
        <time>2021-03-08T12:58:13Z</time>
      </trkpt>
      <trkpt lat="45.15285" lon="5.57554">
        <ele>1581.99</ele>
        <time>2021-03-08T12:58:34Z</time>
      </trkpt>
      <trkpt lat="45.15275" lon="5.57545">
        <ele>1578.62</ele>
        <time>2021-03-08T12:58:51Z</time>
      </trkpt>
      <trkpt lat="45.15267" lon="5.57539">
        <ele>1575.74</ele>
        <time>2021-03-08T12:59:05Z</time>
      </trkpt>
      <trkpt lat="45.15261" lon="5.57533">
        <ele>1572.37</ele>
        <time>2021-03-08T12:59:20Z</time>
      </trkpt>
      <trkpt lat="45.15254" lon="5.57527">
        <ele>1569.49</ele>
        <time>2021-03-08T12:59:32Z</time>
      </trkpt>
      <trkpt lat="45.15242" lon="5.57519">
        <ele>1566.61</ele>
        <time>2021-03-08T12:59:45Z</time>
      </trkpt>
      <trkpt lat="45.15231" lon="5.57503">
        <ele>1563.24</ele>
        <time>2021-03-08T12:59:56Z</time>
      </trkpt>
      <trkpt lat="45.15223" lon="5.57491">
        <ele>1560.84</ele>
        <time>2021-03-08T13:00:07Z</time>
      </trkpt>
      <trkpt lat="45.15206" lon="5.57472">
        <ele>1559.4</ele>
        <time>2021-03-08T13:00:28Z</time>
      </trkpt>
      <trkpt lat="45.1519" lon="5.57457">
        <ele>1559.4</ele>
        <time>2021-03-08T13:00:47Z</time>
      </trkpt>
      <trkpt lat="45.15175" lon="5.57444">
        <ele>1557.47</ele>
        <time>2021-03-08T13:01:09Z</time>
      </trkpt>
      <trkpt lat="45.15171" lon="5.57442">
        <ele>1556.99</ele>
        <time>2021-03-08T13:01:14Z</time>
      </trkpt>
      <trkpt lat="45.1517" lon="5.57441">
        <ele>1556.99</ele>
        <time>2021-03-08T13:01:15Z</time>
      </trkpt>
      <trkpt lat="45.15154" lon="5.57427">
        <ele>1555.55</ele>
        <time>2021-03-08T13:01:34Z</time>
      </trkpt>
      <trkpt lat="45.15137" lon="5.57409">
        <ele>1552.67</ele>
        <time>2021-03-08T13:01:55Z</time>
      </trkpt>
      <trkpt lat="45.15122" lon="5.57398">
        <ele>1551.22</ele>
        <time>2021-03-08T13:02:10Z</time>
      </trkpt>
      <trkpt lat="45.15106" lon="5.57383">
        <ele>1548.82</ele>
        <time>2021-03-08T13:02:27Z</time>
      </trkpt>
      <trkpt lat="45.15091" lon="5.57364">
        <ele>1546.9</ele>
        <time>2021-03-08T13:02:46Z</time>
      </trkpt>
      <trkpt lat="45.15074" lon="5.57346">
        <ele>1544.98</ele>
        <time>2021-03-08T13:03:05Z</time>
      </trkpt>
      <trkpt lat="45.15058" lon="5.57335">
        <ele>1542.57</ele>
        <time>2021-03-08T13:03:24Z</time>
      </trkpt>
      <trkpt lat="45.1504" lon="5.57326">
        <ele>1540.17</ele>
        <time>2021-03-08T13:03:46Z</time>
      </trkpt>
      <trkpt lat="45.15027" lon="5.57322">
        <ele>1537.77</ele>
        <time>2021-03-08T13:04:03Z</time>
      </trkpt>
      <trkpt lat="45.15001" lon="5.57324">
        <ele>1535.36</ele>
        <time>2021-03-08T13:04:29Z</time>
      </trkpt>
      <trkpt lat="45.14986" lon="5.57328">
        <ele>1532.48</ele>
        <time>2021-03-08T13:04:44Z</time>
      </trkpt>
      <trkpt lat="45.14967" lon="5.57335">
        <ele>1530.08</ele>
        <time>2021-03-08T13:05:05Z</time>
      </trkpt>
      <trkpt lat="45.14946" lon="5.57344">
        <ele>1527.67</ele>
        <time>2021-03-08T13:05:28Z</time>
      </trkpt>
      <trkpt lat="45.14931" lon="5.57352">
        <ele>1526.23</ele>
        <time>2021-03-08T13:05:48Z</time>
      </trkpt>
      <trkpt lat="45.14913" lon="5.57365">
        <ele>1523.83</ele>
        <time>2021-03-08T13:06:13Z</time>
      </trkpt>
      <trkpt lat="45.14888" lon="5.57367">
        <ele>1521.42</ele>
        <time>2021-03-08T13:06:33Z</time>
      </trkpt>
      <trkpt lat="45.14889" lon="5.57364">
        <ele>1520.46</ele>
        <time>2021-03-08T13:06:57Z</time>
      </trkpt>
      <trkpt lat="45.1489" lon="5.57363">
        <ele>1520.46</ele>
        <time>2021-03-08T13:07:01Z</time>
      </trkpt>
      <trkpt lat="45.14895" lon="5.57362">
        <ele>1520.46</ele>
        <time>2021-03-08T13:07:37Z</time>
      </trkpt>
      <trkpt lat="45.14895" lon="5.57361">
        <ele>1519.98</ele>
        <time>2021-03-08T13:08:19Z</time>
      </trkpt>
      <trkpt lat="45.14891" lon="5.5736">
        <ele>1519.98</ele>
        <time>2021-03-08T13:08:56Z</time>
      </trkpt>
      <trkpt lat="45.14892" lon="5.57358">
        <ele>1519.98</ele>
        <time>2021-03-08T13:09:33Z</time>
      </trkpt>
      <trkpt lat="45.14891" lon="5.57361">
        <ele>1519.98</ele>
        <time>2021-03-08T13:09:59Z</time>
      </trkpt>
      <trkpt lat="45.14892" lon="5.57361">
        <ele>1519.98</ele>
        <time>2021-03-08T13:10:23Z</time>
      </trkpt>
      <trkpt lat="45.14894" lon="5.57361">
        <ele>1519.98</ele>
        <time>2021-03-08T13:10:57Z</time>
      </trkpt>
      <trkpt lat="45.14891" lon="5.57361">
        <ele>1519.98</ele>
        <time>2021-03-08T13:11:34Z</time>
      </trkpt>
      <trkpt lat="45.14892" lon="5.57361">
        <ele>1519.98</ele>
        <time>2021-03-08T13:12:00Z</time>
      </trkpt>
      <trkpt lat="45.14889" lon="5.57361">
        <ele>1519.98</ele>
        <time>2021-03-08T13:12:37Z</time>
      </trkpt>
      <trkpt lat="45.1489" lon="5.5736">
        <ele>1519.98</ele>
        <time>2021-03-08T13:13:14Z</time>
      </trkpt>
      <trkpt lat="45.1489" lon="5.57361">
        <ele>1520.46</ele>
        <time>2021-03-08T13:13:40Z</time>
      </trkpt>
      <trkpt lat="45.14888" lon="5.57358">
        <ele>1519.98</ele>
        <time>2021-03-08T13:14:07Z</time>
      </trkpt>
      <trkpt lat="45.14866" lon="5.57345">
        <ele>1519.02</ele>
        <time>2021-03-08T13:14:37Z</time>
      </trkpt>
      <trkpt lat="45.14848" lon="5.57322">
        <ele>1517.1</ele>
        <time>2021-03-08T13:15:05Z</time>
      </trkpt>
      <trkpt lat="45.14847" lon="5.5732">
        <ele>1516.62</ele>
        <time>2021-03-08T13:15:06Z</time>
      </trkpt>
      <trkpt lat="45.14834" lon="5.57305">
        <ele>1514.69</ele>
        <time>2021-03-08T13:15:24Z</time>
      </trkpt>
      <trkpt lat="45.1482" lon="5.5729">
        <ele>1512.29</ele>
        <time>2021-03-08T13:15:43Z</time>
      </trkpt>
      <trkpt lat="45.14797" lon="5.5728">
        <ele>1509.41</ele>
        <time>2021-03-08T13:16:10Z</time>
      </trkpt>
      <trkpt lat="45.14773" lon="5.57275">
        <ele>1506.52</ele>
        <time>2021-03-08T13:16:36Z</time>
      </trkpt>
      <trkpt lat="45.14749" lon="5.57263">
        <ele>1503.64</ele>
        <time>2021-03-08T13:17:02Z</time>
      </trkpt>
      <trkpt lat="45.14728" lon="5.57243">
        <ele>1501.24</ele>
        <time>2021-03-08T13:17:29Z</time>
      </trkpt>
      <trkpt lat="45.14712" lon="5.57227">
        <ele>1499.31</ele>
        <time>2021-03-08T13:17:50Z</time>
      </trkpt>
      <trkpt lat="45.14698" lon="5.57219">
        <ele>1497.39</ele>
        <time>2021-03-08T13:18:08Z</time>
      </trkpt>
      <trkpt lat="45.14682" lon="5.57213">
        <ele>1495.95</ele>
        <time>2021-03-08T13:18:26Z</time>
      </trkpt>
      <trkpt lat="45.14672" lon="5.57228">
        <ele>1494.99</ele>
        <time>2021-03-08T13:18:46Z</time>
      </trkpt>
      <trkpt lat="45.14655" lon="5.5725">
        <ele>1492.1</ele>
        <time>2021-03-08T13:19:14Z</time>
      </trkpt>
      <trkpt lat="45.1463" lon="5.57253">
        <ele>1489.22</ele>
        <time>2021-03-08T13:19:39Z</time>
      </trkpt>
      <trkpt lat="45.14604" lon="5.57257">
        <ele>1488.26</ele>
        <time>2021-03-08T13:20:07Z</time>
      </trkpt>
      <trkpt lat="45.14583" lon="5.57258">
        <ele>1486.82</ele>
        <time>2021-03-08T13:20:35Z</time>
      </trkpt>
      <trkpt lat="45.14559" lon="5.5726">
        <ele>1486.34</ele>
        <time>2021-03-08T13:21:03Z</time>
      </trkpt>
      <trkpt lat="45.14539" lon="5.57258">
        <ele>1484.89</ele>
        <time>2021-03-08T13:21:28Z</time>
      </trkpt>
      <trkpt lat="45.14515" lon="5.57257">
        <ele>1483.45</ele>
        <time>2021-03-08T13:22:00Z</time>
      </trkpt>
      <trkpt lat="45.14492" lon="5.57253">
        <ele>1482.49</ele>
        <time>2021-03-08T13:22:26Z</time>
      </trkpt>
      <trkpt lat="45.14474" lon="5.57248">
        <ele>1482.01</ele>
        <time>2021-03-08T13:22:47Z</time>
      </trkpt>
      <trkpt lat="45.14454" lon="5.5723">
        <ele>1480.09</ele>
        <time>2021-03-08T13:23:14Z</time>
      </trkpt>
      <trkpt lat="45.14449" lon="5.57208">
        <ele>1479.13</ele>
        <time>2021-03-08T13:23:34Z</time>
      </trkpt>
      <trkpt lat="45.14448" lon="5.57184">
        <ele>1478.65</ele>
        <time>2021-03-08T13:23:52Z</time>
      </trkpt>
      <trkpt lat="45.14448" lon="5.57159">
        <ele>1477.68</ele>
        <time>2021-03-08T13:24:11Z</time>
      </trkpt>
      <trkpt lat="45.14441" lon="5.57137">
        <ele>1476.24</ele>
        <time>2021-03-08T13:24:31Z</time>
      </trkpt>
      <trkpt lat="45.14433" lon="5.57121">
        <ele>1474.8</ele>
        <time>2021-03-08T13:24:49Z</time>
      </trkpt>
      <trkpt lat="45.14431" lon="5.57123">
        <ele>1474.8</ele>
        <time>2021-03-08T13:25:11Z</time>
      </trkpt>
      <trkpt lat="45.14433" lon="5.57122">
        <ele>1474.32</ele>
        <time>2021-03-08T13:26:05Z</time>
      </trkpt>
      <trkpt lat="45.14433" lon="5.57123">
        <ele>1474.32</ele>
        <time>2021-03-08T13:26:54Z</time>
      </trkpt>
      <trkpt lat="45.14433" lon="5.57122">
        <ele>1474.32</ele>
        <time>2021-03-08T13:27:42Z</time>
      </trkpt>
      <trkpt lat="45.14431" lon="5.57117">
        <ele>1474.32</ele>
        <time>2021-03-08T13:28:19Z</time>
      </trkpt>
      <trkpt lat="45.1443" lon="5.57109">
        <ele>1474.32</ele>
        <time>2021-03-08T13:28:35Z</time>
      </trkpt>
      <trkpt lat="45.1442" lon="5.57097">
        <ele>1472.88</ele>
        <time>2021-03-08T13:28:56Z</time>
      </trkpt>
      <trkpt lat="45.14417" lon="5.57078">
        <ele>1471.44</ele>
        <time>2021-03-08T13:29:14Z</time>
      </trkpt>
      <trkpt lat="45.14418" lon="5.57052">
        <ele>1468.07</ele>
        <time>2021-03-08T13:29:33Z</time>
      </trkpt>
      <trkpt lat="45.14419" lon="5.57029">
        <ele>1465.19</ele>
        <time>2021-03-08T13:29:51Z</time>
      </trkpt>
      <trkpt lat="45.14419" lon="5.5701">
        <ele>1461.82</ele>
        <time>2021-03-08T13:30:05Z</time>
      </trkpt>
      <trkpt lat="45.14421" lon="5.56995">
        <ele>1459.42</ele>
        <time>2021-03-08T13:30:15Z</time>
      </trkpt>
      <trkpt lat="45.14422" lon="5.56993">
        <ele>1459.42</ele>
        <time>2021-03-08T13:30:16Z</time>
      </trkpt>
      <trkpt lat="45.14422" lon="5.56992">
        <ele>1459.42</ele>
        <time>2021-03-08T13:30:17Z</time>
      </trkpt>
      <trkpt lat="45.14427" lon="5.56983">
        <ele>1457.5</ele>
        <time>2021-03-08T13:30:24Z</time>
      </trkpt>
      <trkpt lat="45.14438" lon="5.5696">
        <ele>1454.61</ele>
        <time>2021-03-08T13:30:43Z</time>
      </trkpt>
      <trkpt lat="45.14451" lon="5.5694">
        <ele>1451.73</ele>
        <time>2021-03-08T13:31:01Z</time>
      </trkpt>
      <trkpt lat="45.14465" lon="5.5692">
        <ele>1448.36</ele>
        <time>2021-03-08T13:31:19Z</time>
      </trkpt>
      <trkpt lat="45.14467" lon="5.569">
        <ele>1445.48</ele>
        <time>2021-03-08T13:31:36Z</time>
      </trkpt>
      <trkpt lat="45.14467" lon="5.56882">
        <ele>1442.11</ele>
        <time>2021-03-08T13:31:49Z</time>
      </trkpt>
      <trkpt lat="45.1447" lon="5.56861">
        <ele>1439.23</ele>
        <time>2021-03-08T13:32:03Z</time>
      </trkpt>
      <trkpt lat="45.14475" lon="5.56845">
        <ele>1435.87</ele>
        <time>2021-03-08T13:32:18Z</time>
      </trkpt>
      <trkpt lat="45.14485" lon="5.56823">
        <ele>1432.98</ele>
        <time>2021-03-08T13:32:34Z</time>
      </trkpt>
      <trkpt lat="45.1449" lon="5.56806">
        <ele>1429.62</ele>
        <time>2021-03-08T13:32:47Z</time>
      </trkpt>
      <trkpt lat="45.14488" lon="5.56785">
        <ele>1426.73</ele>
        <time>2021-03-08T13:32:59Z</time>
      </trkpt>
      <trkpt lat="45.14487" lon="5.56768">
        <ele>1423.37</ele>
        <time>2021-03-08T13:33:12Z</time>
      </trkpt>
      <trkpt lat="45.14491" lon="5.56753">
        <ele>1420</ele>
        <time>2021-03-08T13:33:23Z</time>
      </trkpt>
      <trkpt lat="45.14498" lon="5.56737">
        <ele>1417.12</ele>
        <time>2021-03-08T13:33:36Z</time>
      </trkpt>
      <trkpt lat="45.14506" lon="5.56716">
        <ele>1413.76</ele>
        <time>2021-03-08T13:33:51Z</time>
      </trkpt>
      <trkpt lat="45.14514" lon="5.56697">
        <ele>1410.39</ele>
        <time>2021-03-08T13:34:05Z</time>
      </trkpt>
      <trkpt lat="45.14516" lon="5.56694">
        <ele>1409.43</ele>
        <time>2021-03-08T13:34:07Z</time>
      </trkpt>
      <trkpt lat="45.14525" lon="5.56674">
        <ele>1406.55</ele>
        <time>2021-03-08T13:34:20Z</time>
      </trkpt>
      <trkpt lat="45.14536" lon="5.5665">
        <ele>1403.18</ele>
        <time>2021-03-08T13:34:37Z</time>
      </trkpt>
      <trkpt lat="45.14538" lon="5.56629">
        <ele>1400.3</ele>
        <time>2021-03-08T13:34:50Z</time>
      </trkpt>
      <trkpt lat="45.14548" lon="5.56601">
        <ele>1397.41</ele>
        <time>2021-03-08T13:35:11Z</time>
      </trkpt>
      <trkpt lat="45.14551" lon="5.56578">
        <ele>1394.05</ele>
        <time>2021-03-08T13:35:28Z</time>
      </trkpt>
      <trkpt lat="45.14553" lon="5.5656">
        <ele>1391.17</ele>
        <time>2021-03-08T13:35:42Z</time>
      </trkpt>
      <trkpt lat="45.14556" lon="5.5654">
        <ele>1387.8</ele>
        <time>2021-03-08T13:35:59Z</time>
      </trkpt>
      <trkpt lat="45.14553" lon="5.56517">
        <ele>1384.92</ele>
        <time>2021-03-08T13:36:13Z</time>
      </trkpt>
      <trkpt lat="45.1455" lon="5.56501">
        <ele>1382.03</ele>
        <time>2021-03-08T13:36:25Z</time>
      </trkpt>
      <trkpt lat="45.14545" lon="5.56485">
        <ele>1378.67</ele>
        <time>2021-03-08T13:36:38Z</time>
      </trkpt>
      <trkpt lat="45.14538" lon="5.56469">
        <ele>1375.78</ele>
        <time>2021-03-08T13:36:52Z</time>
      </trkpt>
      <trkpt lat="45.14536" lon="5.56455">
        <ele>1372.42</ele>
        <time>2021-03-08T13:37:03Z</time>
      </trkpt>
      <trkpt lat="45.14529" lon="5.56416">
        <ele>1369.54</ele>
        <time>2021-03-08T13:37:29Z</time>
      </trkpt>
      <trkpt lat="45.14528" lon="5.56386">
        <ele>1366.17</ele>
        <time>2021-03-08T13:37:49Z</time>
      </trkpt>
      <trkpt lat="45.1453" lon="5.56375">
        <ele>1362.81</ele>
        <time>2021-03-08T13:37:57Z</time>
      </trkpt>
      <trkpt lat="45.14535" lon="5.56362">
        <ele>1359.44</ele>
        <time>2021-03-08T13:38:07Z</time>
      </trkpt>
      <trkpt lat="45.14537" lon="5.56342">
        <ele>1358.48</ele>
        <time>2021-03-08T13:38:26Z</time>
      </trkpt>
      <trkpt lat="45.14537" lon="5.56339">
        <ele>1355.12</ele>
        <time>2021-03-08T13:38:30Z</time>
      </trkpt>
      <trkpt lat="45.14537" lon="5.56338">
        <ele>1354.63</ele>
        <time>2021-03-08T13:38:32Z</time>
      </trkpt>
      <trkpt lat="45.14549" lon="5.56322">
        <ele>1353.67</ele>
        <time>2021-03-08T13:38:57Z</time>
      </trkpt>
      <trkpt lat="45.14554" lon="5.56316">
        <ele>1353.19</ele>
        <time>2021-03-08T13:39:28Z</time>
      </trkpt>
      <trkpt lat="45.14544" lon="5.56312">
        <ele>1352.71</ele>
        <time>2021-03-08T13:39:50Z</time>
      </trkpt>
      <trkpt lat="45.14534" lon="5.56303">
        <ele>1349.35</ele>
        <time>2021-03-08T13:40:06Z</time>
      </trkpt>
      <trkpt lat="45.14526" lon="5.56284">
        <ele>1346.46</ele>
        <time>2021-03-08T13:40:20Z</time>
      </trkpt>
      <trkpt lat="45.1452" lon="5.56271">
        <ele>1343.58</ele>
        <time>2021-03-08T13:40:33Z</time>
      </trkpt>
      <trkpt lat="45.1451" lon="5.56262">
        <ele>1340.22</ele>
        <time>2021-03-08T13:40:46Z</time>
      </trkpt>
      <trkpt lat="45.14497" lon="5.56254">
        <ele>1337.33</ele>
        <time>2021-03-08T13:41:01Z</time>
      </trkpt>
      <trkpt lat="45.14492" lon="5.56244">
        <ele>1333.97</ele>
        <time>2021-03-08T13:41:11Z</time>
      </trkpt>
      <trkpt lat="45.14486" lon="5.56228">
        <ele>1331.08</ele>
        <time>2021-03-08T13:41:24Z</time>
      </trkpt>
      <trkpt lat="45.14485" lon="5.5622">
        <ele>1329.64</ele>
        <time>2021-03-08T13:41:41Z</time>
      </trkpt>
      <trkpt lat="45.14486" lon="5.56216">
        <ele>1328.68</ele>
        <time>2021-03-08T13:41:55Z</time>
      </trkpt>
      <trkpt lat="45.14487" lon="5.56214">
        <ele>1329.16</ele>
        <time>2021-03-08T13:42:00Z</time>
      </trkpt>
      <trkpt lat="45.14489" lon="5.56217">
        <ele>1329.64</ele>
        <time>2021-03-08T13:42:19Z</time>
      </trkpt>
      <trkpt lat="45.14489" lon="5.56216">
        <ele>1329.16</ele>
        <time>2021-03-08T13:43:04Z</time>
      </trkpt>
      <trkpt lat="45.14493" lon="5.56215">
        <ele>1328.2</ele>
        <time>2021-03-08T13:43:44Z</time>
      </trkpt>
      <trkpt lat="45.14496" lon="5.56217">
        <ele>1328.2</ele>
        <time>2021-03-08T13:43:52Z</time>
      </trkpt>
      <trkpt lat="45.1449" lon="5.56218">
        <ele>1328.2</ele>
        <time>2021-03-08T13:44:31Z</time>
      </trkpt>
      <trkpt lat="45.14488" lon="5.56219">
        <ele>1328.2</ele>
        <time>2021-03-08T13:44:33Z</time>
      </trkpt>
      <trkpt lat="45.14485" lon="5.56219">
        <ele>1328.68</ele>
        <time>2021-03-08T13:45:13Z</time>
      </trkpt>
      <trkpt lat="45.14496" lon="5.56219">
        <ele>1328.68</ele>
        <time>2021-03-08T13:45:59Z</time>
      </trkpt>
      <trkpt lat="45.14492" lon="5.56216">
        <ele>1329.16</ele>
        <time>2021-03-08T13:46:03Z</time>
      </trkpt>
      <trkpt lat="45.14491" lon="5.56216">
        <ele>1329.16</ele>
        <time>2021-03-08T13:46:05Z</time>
      </trkpt>
      <trkpt lat="45.14484" lon="5.56203">
        <ele>1326.76</ele>
        <time>2021-03-08T13:46:28Z</time>
      </trkpt>
      <trkpt lat="45.14476" lon="5.56186">
        <ele>1323.87</ele>
        <time>2021-03-08T13:46:50Z</time>
      </trkpt>
      <trkpt lat="45.14471" lon="5.56174">
        <ele>1320.99</ele>
        <time>2021-03-08T13:47:03Z</time>
      </trkpt>
      <trkpt lat="45.14468" lon="5.56159">
        <ele>1317.62</ele>
        <time>2021-03-08T13:47:19Z</time>
      </trkpt>
      <trkpt lat="45.14465" lon="5.56147">
        <ele>1314.74</ele>
        <time>2021-03-08T13:47:30Z</time>
      </trkpt>
      <trkpt lat="45.14465" lon="5.56131">
        <ele>1311.38</ele>
        <time>2021-03-08T13:47:43Z</time>
      </trkpt>
      <trkpt lat="45.14465" lon="5.56116">
        <ele>1308.49</ele>
        <time>2021-03-08T13:47:55Z</time>
      </trkpt>
      <trkpt lat="45.14461" lon="5.56106">
        <ele>1305.61</ele>
        <time>2021-03-08T13:48:07Z</time>
      </trkpt>
      <trkpt lat="45.14451" lon="5.56103">
        <ele>1302.24</ele>
        <time>2021-03-08T13:48:24Z</time>
      </trkpt>
      <trkpt lat="45.14434" lon="5.561">
        <ele>1299.36</ele>
        <time>2021-03-08T13:48:47Z</time>
      </trkpt>
      <trkpt lat="45.14418" lon="5.5611">
        <ele>1296.48</ele>
        <time>2021-03-08T13:49:06Z</time>
      </trkpt>
      <trkpt lat="45.14408" lon="5.5612">
        <ele>1295.03</ele>
        <time>2021-03-08T13:49:19Z</time>
      </trkpt>
      <trkpt lat="45.14407" lon="5.56121">
        <ele>1294.55</ele>
        <time>2021-03-08T13:49:20Z</time>
      </trkpt>
      <trkpt lat="45.14387" lon="5.56145">
        <ele>1291.67</ele>
        <time>2021-03-08T13:49:43Z</time>
      </trkpt>
      <trkpt lat="45.14364" lon="5.5616">
        <ele>1288.78</ele>
        <time>2021-03-08T13:50:10Z</time>
      </trkpt>
      <trkpt lat="45.14359" lon="5.56159">
        <ele>1288.78</ele>
        <time>2021-03-08T13:50:14Z</time>
      </trkpt>
      <trkpt lat="45.14344" lon="5.56154">
        <ele>1287.82</ele>
        <time>2021-03-08T13:50:25Z</time>
      </trkpt>
      <trkpt lat="45.14325" lon="5.56115">
        <ele>1284.94</ele>
        <time>2021-03-08T13:50:53Z</time>
      </trkpt>
      <trkpt lat="45.14325" lon="5.56113">
        <ele>1284.94</ele>
        <time>2021-03-08T13:50:54Z</time>
      </trkpt>
      <trkpt lat="45.14318" lon="5.56093">
        <ele>1283.5</ele>
        <time>2021-03-08T13:51:09Z</time>
      </trkpt>
      <trkpt lat="45.14306" lon="5.56078">
        <ele>1281.57</ele>
        <time>2021-03-08T13:51:26Z</time>
      </trkpt>
      <trkpt lat="45.1429" lon="5.56089">
        <ele>1279.17</ele>
        <time>2021-03-08T13:51:48Z</time>
      </trkpt>
      <trkpt lat="45.14282" lon="5.56116">
        <ele>1275.81</ele>
        <time>2021-03-08T13:52:14Z</time>
      </trkpt>
      <trkpt lat="45.14278" lon="5.56118">
        <ele>1275.81</ele>
        <time>2021-03-08T13:52:18Z</time>
      </trkpt>
      <trkpt lat="45.14277" lon="5.56118">
        <ele>1275.33</ele>
        <time>2021-03-08T13:52:19Z</time>
      </trkpt>
      <trkpt lat="45.1426" lon="5.56123">
        <ele>1274.36</ele>
        <time>2021-03-08T13:52:45Z</time>
      </trkpt>
      <trkpt lat="45.14245" lon="5.5612">
        <ele>1274.36</ele>
        <time>2021-03-08T13:53:10Z</time>
      </trkpt>
      <trkpt lat="45.14222" lon="5.56097">
        <ele>1274.36</ele>
        <time>2021-03-08T13:53:39Z</time>
      </trkpt>
      <trkpt lat="45.142" lon="5.5607">
        <ele>1274.36</ele>
        <time>2021-03-08T13:54:08Z</time>
      </trkpt>
      <trkpt lat="45.14182" lon="5.5606">
        <ele>1271.96</ele>
        <time>2021-03-08T13:54:36Z</time>
      </trkpt>
      <trkpt lat="45.1416" lon="5.56054">
        <ele>1269.08</ele>
        <time>2021-03-08T13:54:56Z</time>
      </trkpt>
      <trkpt lat="45.14134" lon="5.56043">
        <ele>1265.71</ele>
        <time>2021-03-08T13:55:23Z</time>
      </trkpt>
      <trkpt lat="45.1413" lon="5.56044">
        <ele>1265.23</ele>
        <time>2021-03-08T13:55:28Z</time>
      </trkpt>
      <trkpt lat="45.14103" lon="5.56056">
        <ele>1262.35</ele>
        <time>2021-03-08T13:55:53Z</time>
      </trkpt>
      <trkpt lat="45.14097" lon="5.56082">
        <ele>1258.98</ele>
        <time>2021-03-08T13:56:16Z</time>
      </trkpt>
      <trkpt lat="45.14093" lon="5.56106">
        <ele>1256.1</ele>
        <time>2021-03-08T13:56:41Z</time>
      </trkpt>
      <trkpt lat="45.14087" lon="5.56111">
        <ele>1255.62</ele>
        <time>2021-03-08T13:56:51Z</time>
      </trkpt>
      <trkpt lat="45.14068" lon="5.56118">
        <ele>1252.25</ele>
        <time>2021-03-08T13:57:16Z</time>
      </trkpt>
      <trkpt lat="45.14052" lon="5.56092">
        <ele>1251.29</ele>
        <time>2021-03-08T13:57:43Z</time>
      </trkpt>
      <trkpt lat="45.1404" lon="5.56067">
        <ele>1249.85</ele>
        <time>2021-03-08T13:58:09Z</time>
      </trkpt>
      <trkpt lat="45.14028" lon="5.56046">
        <ele>1247.93</ele>
        <time>2021-03-08T13:58:32Z</time>
      </trkpt>
      <trkpt lat="45.14019" lon="5.56018">
        <ele>1245.04</ele>
        <time>2021-03-08T13:58:57Z</time>
      </trkpt>
      <trkpt lat="45.14008" lon="5.56005">
        <ele>1244.08</ele>
        <time>2021-03-08T13:59:16Z</time>
      </trkpt>
      <trkpt lat="45.13993" lon="5.56018">
        <ele>1241.2</ele>
        <time>2021-03-08T13:59:41Z</time>
      </trkpt>
      <trkpt lat="45.13982" lon="5.56033">
        <ele>1238.32</ele>
        <time>2021-03-08T14:00:06Z</time>
      </trkpt>
      <trkpt lat="45.13979" lon="5.56039">
        <ele>1236.39</ele>
        <time>2021-03-08T14:00:19Z</time>
      </trkpt>
      <trkpt lat="45.13957" lon="5.56032">
        <ele>1233.03</ele>
        <time>2021-03-08T14:00:39Z</time>
      </trkpt>
      <trkpt lat="45.13946" lon="5.55994">
        <ele>1231.59</ele>
        <time>2021-03-08T14:01:10Z</time>
      </trkpt>
      <trkpt lat="45.13942" lon="5.55953">
        <ele>1231.59</ele>
        <time>2021-03-08T14:01:42Z</time>
      </trkpt>
      <trkpt lat="45.13932" lon="5.55918">
        <ele>1229.66</ele>
        <time>2021-03-08T14:02:10Z</time>
      </trkpt>
      <trkpt lat="45.13913" lon="5.55906">
        <ele>1226.78</ele>
        <time>2021-03-08T14:02:37Z</time>
      </trkpt>
      <trkpt lat="45.13888" lon="5.55901">
        <ele>1223.42</ele>
        <time>2021-03-08T14:03:02Z</time>
      </trkpt>
      <trkpt lat="45.13869" lon="5.55899">
        <ele>1220.53</ele>
        <time>2021-03-08T14:03:22Z</time>
      </trkpt>
      <trkpt lat="45.13848" lon="5.559">
        <ele>1217.65</ele>
        <time>2021-03-08T14:03:44Z</time>
      </trkpt>
      <trkpt lat="45.13823" lon="5.55902">
        <ele>1214.76</ele>
        <time>2021-03-08T14:04:11Z</time>
      </trkpt>
      <trkpt lat="45.13804" lon="5.55907">
        <ele>1211.4</ele>
        <time>2021-03-08T14:04:34Z</time>
      </trkpt>
      <trkpt lat="45.13781" lon="5.55911">
        <ele>1208.51</ele>
        <time>2021-03-08T14:04:57Z</time>
      </trkpt>
      <trkpt lat="45.13758" lon="5.55915">
        <ele>1205.63</ele>
        <time>2021-03-08T14:05:19Z</time>
      </trkpt>
      <trkpt lat="45.13741" lon="5.55919">
        <ele>1202.27</ele>
        <time>2021-03-08T14:05:40Z</time>
      </trkpt>
      <trkpt lat="45.1373" lon="5.55926">
        <ele>1198.9</ele>
        <time>2021-03-08T14:05:56Z</time>
      </trkpt>
      <trkpt lat="45.13708" lon="5.55932">
        <ele>1196.02</ele>
        <time>2021-03-08T14:06:15Z</time>
      </trkpt>
      <trkpt lat="45.1369" lon="5.55925">
        <ele>1193.61</ele>
        <time>2021-03-08T14:06:27Z</time>
      </trkpt>
      <trkpt lat="45.13673" lon="5.55911">
        <ele>1192.17</ele>
        <time>2021-03-08T14:06:44Z</time>
      </trkpt>
      <trkpt lat="45.13666" lon="5.55908">
        <ele>1191.21</ele>
        <time>2021-03-08T14:06:51Z</time>
      </trkpt>
      <trkpt lat="45.13665" lon="5.55908">
        <ele>1191.69</ele>
        <time>2021-03-08T14:06:52Z</time>
      </trkpt>
      <trkpt lat="45.13656" lon="5.55902">
        <ele>1190.25</ele>
        <time>2021-03-08T14:07:07Z</time>
      </trkpt>
      <trkpt lat="45.13648" lon="5.55896">
        <ele>1190.25</ele>
        <time>2021-03-08T14:07:21Z</time>
      </trkpt>
      <trkpt lat="45.13642" lon="5.55901">
        <ele>1190.25</ele>
        <time>2021-03-08T14:07:37Z</time>
      </trkpt>
      <trkpt lat="45.13642" lon="5.55896">
        <ele>1190.25</ele>
        <time>2021-03-08T14:08:17Z</time>
      </trkpt>
      <trkpt lat="45.13647" lon="5.55891">
        <ele>1190.25</ele>
        <time>2021-03-08T14:09:00Z</time>
      </trkpt>
      <trkpt lat="45.13643" lon="5.55889">
        <ele>1190.25</ele>
        <time>2021-03-08T14:09:09Z</time>
      </trkpt>
      <trkpt lat="45.13642" lon="5.55903">
        <ele>1190.25</ele>
        <time>2021-03-08T14:09:36Z</time>
      </trkpt>
      <trkpt lat="45.13642" lon="5.55916">
        <ele>1190.25</ele>
        <time>2021-03-08T14:09:50Z</time>
      </trkpt>
      <trkpt lat="45.13632" lon="5.5594">
        <ele>1201.3</ele>
        <time>2021-03-08T14:10:18Z</time>
      </trkpt>
      <trkpt lat="45.13631" lon="5.5594">
        <ele>1201.3</ele>
        <time>2021-03-08T14:10:19Z</time>
      </trkpt>
      <trkpt lat="45.13625" lon="5.55955">
        <ele>1204.67</ele>
        <time>2021-03-08T14:10:38Z</time>
      </trkpt>
      <trkpt lat="45.13617" lon="5.55969">
        <ele>1207.55</ele>
        <time>2021-03-08T14:10:56Z</time>
      </trkpt>
      <trkpt lat="45.13601" lon="5.55986">
        <ele>1210.44</ele>
        <time>2021-03-08T14:11:18Z</time>
      </trkpt>
      <trkpt lat="45.13582" lon="5.55999">
        <ele>1213.8</ele>
        <time>2021-03-08T14:11:42Z</time>
      </trkpt>
      <trkpt lat="45.13573" lon="5.56008">
        <ele>1216.21</ele>
        <time>2021-03-08T14:12:02Z</time>
      </trkpt>
      <trkpt lat="45.13564" lon="5.56012">
        <ele>1219.09</ele>
        <time>2021-03-08T14:12:16Z</time>
      </trkpt>
      <trkpt lat="45.13553" lon="5.56024">
        <ele>1222.45</ele>
        <time>2021-03-08T14:12:34Z</time>
      </trkpt>
      <trkpt lat="45.13549" lon="5.56038">
        <ele>1225.82</ele>
        <time>2021-03-08T14:12:53Z</time>
      </trkpt>
      <trkpt lat="45.13546" lon="5.56049">
        <ele>1228.7</ele>
        <time>2021-03-08T14:13:09Z</time>
      </trkpt>
      <trkpt lat="45.13548" lon="5.5605">
        <ele>1229.18</ele>
        <time>2021-03-08T14:13:11Z</time>
      </trkpt>
      <trkpt lat="45.13553" lon="5.56055">
        <ele>1232.55</ele>
        <time>2021-03-08T14:13:30Z</time>
      </trkpt>
      <trkpt lat="45.13556" lon="5.56066">
        <ele>1235.43</ele>
        <time>2021-03-08T14:13:47Z</time>
      </trkpt>
      <trkpt lat="45.13555" lon="5.56084">
        <ele>1238.32</ele>
        <time>2021-03-08T14:14:06Z</time>
      </trkpt>
      <trkpt lat="45.13553" lon="5.56093">
        <ele>1240.24</ele>
        <time>2021-03-08T14:14:19Z</time>
      </trkpt>
      <trkpt lat="45.13551" lon="5.56095">
        <ele>1240.24</ele>
        <time>2021-03-08T14:14:48Z</time>
      </trkpt>
      <trkpt lat="45.13555" lon="5.56094">
        <ele>1240.72</ele>
        <time>2021-03-08T14:15:28Z</time>
      </trkpt>
      <trkpt lat="45.13556" lon="5.56093">
        <ele>1240.72</ele>
        <time>2021-03-08T14:15:49Z</time>
      </trkpt>
      <trkpt lat="45.13556" lon="5.56092">
        <ele>1240.72</ele>
        <time>2021-03-08T14:16:33Z</time>
      </trkpt>
      <trkpt lat="45.13556" lon="5.56093">
        <ele>1240.72</ele>
        <time>2021-03-08T14:17:12Z</time>
      </trkpt>
      <trkpt lat="45.13551" lon="5.56091">
        <ele>1241.2</ele>
        <time>2021-03-08T14:17:52Z</time>
      </trkpt>
      <trkpt lat="45.13555" lon="5.56094">
        <ele>1241.2</ele>
        <time>2021-03-08T14:17:58Z</time>
      </trkpt>
      <trkpt lat="45.13554" lon="5.56102">
        <ele>1240.72</ele>
        <time>2021-03-08T14:18:35Z</time>
      </trkpt>
      <trkpt lat="45.13538" lon="5.56111">
        <ele>1238.8</ele>
        <time>2021-03-08T14:19:05Z</time>
      </trkpt>
      <trkpt lat="45.13509" lon="5.56099">
        <ele>1237.83</ele>
        <time>2021-03-08T14:19:36Z</time>
      </trkpt>
      <trkpt lat="45.13487" lon="5.56078">
        <ele>1234.95</ele>
        <time>2021-03-08T14:20:02Z</time>
      </trkpt>
      <trkpt lat="45.13461" lon="5.5604">
        <ele>1232.55</ele>
        <time>2021-03-08T14:20:33Z</time>
      </trkpt>
      <trkpt lat="45.1344" lon="5.56017">
        <ele>1230.14</ele>
        <time>2021-03-08T14:21:03Z</time>
      </trkpt>
      <trkpt lat="45.13416" lon="5.5601">
        <ele>1229.18</ele>
        <time>2021-03-08T14:21:32Z</time>
      </trkpt>
      <trkpt lat="45.13382" lon="5.56013">
        <ele>1229.18</ele>
        <time>2021-03-08T14:22:05Z</time>
      </trkpt>
      <trkpt lat="45.13373" lon="5.56016">
        <ele>1228.22</ele>
        <time>2021-03-08T14:22:16Z</time>
      </trkpt>
      <trkpt lat="45.13345" lon="5.56028">
        <ele>1227.26</ele>
        <time>2021-03-08T14:22:47Z</time>
      </trkpt>
      <trkpt lat="45.13326" lon="5.56045">
        <ele>1224.38</ele>
        <time>2021-03-08T14:23:14Z</time>
      </trkpt>
      <trkpt lat="45.13314" lon="5.56055">
        <ele>1221.01</ele>
        <time>2021-03-08T14:23:30Z</time>
      </trkpt>
      <trkpt lat="45.13303" lon="5.56059">
        <ele>1217.65</ele>
        <time>2021-03-08T14:23:46Z</time>
      </trkpt>
      <trkpt lat="45.13282" lon="5.5606">
        <ele>1214.76</ele>
        <time>2021-03-08T14:24:05Z</time>
      </trkpt>
      <trkpt lat="45.13254" lon="5.56047">
        <ele>1212.84</ele>
        <time>2021-03-08T14:24:31Z</time>
      </trkpt>
      <trkpt lat="45.13234" lon="5.56045">
        <ele>1212.84</ele>
        <time>2021-03-08T14:24:54Z</time>
      </trkpt>
      <trkpt lat="45.13206" lon="5.56054">
        <ele>1213.32</ele>
        <time>2021-03-08T14:25:24Z</time>
      </trkpt>
      <trkpt lat="45.1319" lon="5.56062">
        <ele>1212.84</ele>
        <time>2021-03-08T14:25:38Z</time>
      </trkpt>
      <trkpt lat="45.13171" lon="5.56085">
        <ele>1210.44</ele>
        <time>2021-03-08T14:26:04Z</time>
      </trkpt>
      <trkpt lat="45.13159" lon="5.56103">
        <ele>1210.44</ele>
        <time>2021-03-08T14:26:26Z</time>
      </trkpt>
      <trkpt lat="45.13158" lon="5.56104">
        <ele>1210.44</ele>
        <time>2021-03-08T14:26:27Z</time>
      </trkpt>
      <trkpt lat="45.1314" lon="5.56107">
        <ele>1209.48</ele>
        <time>2021-03-08T14:26:48Z</time>
      </trkpt>
      <trkpt lat="45.13122" lon="5.56094">
        <ele>1210.44</ele>
        <time>2021-03-08T14:27:15Z</time>
      </trkpt>
      <trkpt lat="45.13101" lon="5.5607">
        <ele>1212.84</ele>
        <time>2021-03-08T14:27:41Z</time>
      </trkpt>
      <trkpt lat="45.13092" lon="5.5605">
        <ele>1216.21</ele>
        <time>2021-03-08T14:28:02Z</time>
      </trkpt>
      <trkpt lat="45.13069" lon="5.56023">
        <ele>1218.13</ele>
        <time>2021-03-08T14:28:29Z</time>
      </trkpt>
      <trkpt lat="45.13056" lon="5.56012">
        <ele>1216.69</ele>
        <time>2021-03-08T14:28:52Z</time>
      </trkpt>
      <trkpt lat="45.13055" lon="5.56013">
        <ele>1219.09</ele>
        <time>2021-03-08T14:28:56Z</time>
      </trkpt>
      <trkpt lat="45.13053" lon="5.5601">
        <ele>1219.09</ele>
        <time>2021-03-08T14:29:18Z</time>
      </trkpt>
      <trkpt lat="45.13053" lon="5.56009">
        <ele>1219.09</ele>
        <time>2021-03-08T14:29:28Z</time>
      </trkpt>
    </trkseg>
  </trk>
</gpx>